<?xml version="1.0" encoding="UTF-8" standalone="no" ?>
<gpx xmlns="http://www.topografix.com/GPX/1/1" xmlns:xsi="http://www.w3.org/2001/XMLSchema-instance" xsi:schemaLocation="http://www.topografix.com/GPX/1/1 http://www.topografix.com/GPX/1/1/gpx.xsd" version="1.1" creator="VisuGPX - https://www.visugpx.com">
  <metadata>
    <name>Clécy - Le pain de sucre et les rochers des Parcs</name>
    <desc><![CDATA[Randonnée du 13 km à partir du parking du Pont de Vey à Clécy]]></desc>
  </metadata>
  <trk>
    <name><![CDATA[J1 Clécy - Le pain de sucre et les rochers des Parcs_R]]></name>
    <trkseg>
      <trkpt lat="48.91421" lon="-0.47601">
        <ele>36.58</ele>
        <time>2018-09-28T11:18:24Z</time>
      </trkpt>
      <trkpt lat="48.91446" lon="-0.47609">
        <ele>35.11</ele>
        <time>2018-09-28T11:21:19Z</time>
      </trkpt>
      <trkpt lat="48.91463" lon="-0.47614">
        <ele>35.19</ele>
        <time>2018-09-28T11:21:38Z</time>
      </trkpt>
      <trkpt lat="48.91476" lon="-0.47614">
        <ele>34.45</ele>
        <time>2018-09-28T11:21:54Z</time>
      </trkpt>
      <trkpt lat="48.91491" lon="-0.47619">
        <ele>34.74</ele>
        <time>2018-09-28T11:22:08Z</time>
      </trkpt>
      <trkpt lat="48.91502" lon="-0.4762">
        <ele>34.56</ele>
        <time>2018-09-28T11:22:16Z</time>
      </trkpt>
      <trkpt lat="48.91522" lon="-0.47624">
        <ele>36.04</ele>
        <time>2018-09-28T11:22:32Z</time>
      </trkpt>
      <trkpt lat="48.91531" lon="-0.47624">
        <ele>36.27</ele>
        <time>2018-09-28T11:22:42Z</time>
      </trkpt>
      <trkpt lat="48.91537" lon="-0.47626">
        <ele>36.86</ele>
        <time>2018-09-28T11:22:47Z</time>
      </trkpt>
      <trkpt lat="48.91543" lon="-0.47627">
        <ele>36.72</ele>
        <time>2018-09-28T11:22:53Z</time>
      </trkpt>
      <trkpt lat="48.91547" lon="-0.47629">
        <ele>36.74</ele>
        <time>2018-09-28T11:22:56Z</time>
      </trkpt>
      <trkpt lat="48.9155" lon="-0.4763">
        <ele>37.34</ele>
        <time>2018-09-28T11:23:00Z</time>
      </trkpt>
      <trkpt lat="48.9156" lon="-0.47632">
        <ele>37.49</ele>
        <time>2018-09-28T11:23:10Z</time>
      </trkpt>
      <trkpt lat="48.9158" lon="-0.47638">
        <ele>37.68</ele>
        <time>2018-09-28T11:23:27Z</time>
      </trkpt>
      <trkpt lat="48.91592" lon="-0.47636">
        <ele>38.04</ele>
        <time>2018-09-28T11:23:45Z</time>
      </trkpt>
      <trkpt lat="48.91594" lon="-0.47637">
        <ele>38.04</ele>
        <time>2018-09-28T11:24:11Z</time>
      </trkpt>
      <trkpt lat="48.91604" lon="-0.47642">
        <ele>38.73</ele>
        <time>2018-09-28T11:24:30Z</time>
      </trkpt>
      <trkpt lat="48.91623" lon="-0.47646">
        <ele>37.61</ele>
        <time>2018-09-28T11:24:48Z</time>
      </trkpt>
      <trkpt lat="48.91634" lon="-0.47653">
        <ele>38.14</ele>
        <time>2018-09-28T11:25:02Z</time>
      </trkpt>
      <trkpt lat="48.91654" lon="-0.47657">
        <ele>37.95</ele>
        <time>2018-09-28T11:25:19Z</time>
      </trkpt>
      <trkpt lat="48.9166" lon="-0.47659">
        <ele>38.48</ele>
        <time>2018-09-28T11:25:24Z</time>
      </trkpt>
      <trkpt lat="48.91674" lon="-0.47666">
        <ele>39.81</ele>
        <time>2018-09-28T11:25:39Z</time>
      </trkpt>
      <trkpt lat="48.91675" lon="-0.47666">
        <ele>39.49</ele>
        <time>2018-09-28T11:25:40Z</time>
      </trkpt>
      <trkpt lat="48.91678" lon="-0.4767">
        <ele>39.6</ele>
        <time>2018-09-28T11:25:44Z</time>
      </trkpt>
      <trkpt lat="48.91687" lon="-0.47674">
        <ele>40.22</ele>
        <time>2018-09-28T11:26:00Z</time>
      </trkpt>
      <trkpt lat="48.91689" lon="-0.47675">
        <ele>40.39</ele>
        <time>2018-09-28T11:26:01Z</time>
      </trkpt>
      <trkpt lat="48.9169" lon="-0.47676">
        <ele>40.54</ele>
        <time>2018-09-28T11:26:03Z</time>
      </trkpt>
      <trkpt lat="48.91706" lon="-0.4768">
        <ele>41.49</ele>
        <time>2018-09-28T11:26:18Z</time>
      </trkpt>
      <trkpt lat="48.91708" lon="-0.47679">
        <ele>41.55</ele>
        <time>2018-09-28T11:26:21Z</time>
      </trkpt>
      <trkpt lat="48.91714" lon="-0.4768">
        <ele>42.07</ele>
        <time>2018-09-28T11:26:27Z</time>
      </trkpt>
      <trkpt lat="48.91725" lon="-0.4768">
        <ele>42.68</ele>
        <time>2018-09-28T11:26:37Z</time>
      </trkpt>
      <trkpt lat="48.91729" lon="-0.4768">
        <ele>42.16</ele>
        <time>2018-09-28T11:26:40Z</time>
      </trkpt>
      <trkpt lat="48.91744" lon="-0.47678">
        <ele>43.72</ele>
        <time>2018-09-28T11:26:54Z</time>
      </trkpt>
      <trkpt lat="48.91755" lon="-0.47679">
        <ele>43.59</ele>
        <time>2018-09-28T11:27:06Z</time>
      </trkpt>
      <trkpt lat="48.91758" lon="-0.47678">
        <ele>44.05</ele>
        <time>2018-09-28T11:27:09Z</time>
      </trkpt>
      <trkpt lat="48.91762" lon="-0.47679">
        <ele>44.33</ele>
        <time>2018-09-28T11:27:12Z</time>
      </trkpt>
      <trkpt lat="48.91774" lon="-0.47677">
        <ele>44.77</ele>
        <time>2018-09-28T11:27:24Z</time>
      </trkpt>
      <trkpt lat="48.9179" lon="-0.47675">
        <ele>44.96</ele>
        <time>2018-09-28T11:27:38Z</time>
      </trkpt>
      <trkpt lat="48.91808" lon="-0.47676">
        <ele>46.59</ele>
        <time>2018-09-28T11:27:54Z</time>
      </trkpt>
      <trkpt lat="48.91819" lon="-0.47677">
        <ele>46.83</ele>
        <time>2018-09-28T11:28:03Z</time>
      </trkpt>
      <trkpt lat="48.91824" lon="-0.47678">
        <ele>46.79</ele>
        <time>2018-09-28T11:28:08Z</time>
      </trkpt>
      <trkpt lat="48.91828" lon="-0.47681">
        <ele>46.76</ele>
        <time>2018-09-28T11:28:12Z</time>
      </trkpt>
      <trkpt lat="48.91831" lon="-0.47687">
        <ele>47.61</ele>
        <time>2018-09-28T11:28:16Z</time>
      </trkpt>
      <trkpt lat="48.91833" lon="-0.47695">
        <ele>47.8</ele>
        <time>2018-09-28T11:28:21Z</time>
      </trkpt>
      <trkpt lat="48.91835" lon="-0.47697">
        <ele>48.26</ele>
        <time>2018-09-28T11:28:23Z</time>
      </trkpt>
      <trkpt lat="48.9184" lon="-0.47695">
        <ele>47.81</ele>
        <time>2018-09-28T11:28:27Z</time>
      </trkpt>
      <trkpt lat="48.91844" lon="-0.47691">
        <ele>47.85</ele>
        <time>2018-09-28T11:28:34Z</time>
      </trkpt>
      <trkpt lat="48.91843" lon="-0.47684">
        <ele>47.6</ele>
        <time>2018-09-28T11:28:42Z</time>
      </trkpt>
      <trkpt lat="48.91845" lon="-0.47679">
        <ele>47.1</ele>
        <time>2018-09-28T11:28:47Z</time>
      </trkpt>
      <trkpt lat="48.91857" lon="-0.47675">
        <ele>45.63</ele>
        <time>2018-09-28T11:29:03Z</time>
      </trkpt>
      <trkpt lat="48.91858" lon="-0.47674">
        <ele>45.14</ele>
        <time>2018-09-28T11:29:05Z</time>
      </trkpt>
      <trkpt lat="48.91861" lon="-0.47675">
        <ele>44.92</ele>
        <time>2018-09-28T11:29:08Z</time>
      </trkpt>
      <trkpt lat="48.91874" lon="-0.47675">
        <ele>44.88</ele>
        <time>2018-09-28T11:29:19Z</time>
      </trkpt>
      <trkpt lat="48.9188" lon="-0.47671">
        <ele>44.95</ele>
        <time>2018-09-28T11:29:25Z</time>
      </trkpt>
      <trkpt lat="48.91884" lon="-0.47664">
        <ele>43.28</ele>
        <time>2018-09-28T11:29:32Z</time>
      </trkpt>
      <trkpt lat="48.91893" lon="-0.47653">
        <ele>42.91</ele>
        <time>2018-09-28T11:29:45Z</time>
      </trkpt>
      <trkpt lat="48.91894" lon="-0.47652">
        <ele>43.16</ele>
        <time>2018-09-28T11:29:47Z</time>
      </trkpt>
      <trkpt lat="48.91897" lon="-0.4765">
        <ele>42.99</ele>
        <time>2018-09-28T11:29:50Z</time>
      </trkpt>
      <trkpt lat="48.91907" lon="-0.47644">
        <ele>43.87</ele>
        <time>2018-09-28T11:30:04Z</time>
      </trkpt>
      <trkpt lat="48.91913" lon="-0.47643">
        <ele>44.85</ele>
        <time>2018-09-28T11:30:15Z</time>
      </trkpt>
      <trkpt lat="48.91918" lon="-0.47641">
        <ele>44.59</ele>
        <time>2018-09-28T11:30:19Z</time>
      </trkpt>
      <trkpt lat="48.91922" lon="-0.47639">
        <ele>44.96</ele>
        <time>2018-09-28T11:30:23Z</time>
      </trkpt>
      <trkpt lat="48.91931" lon="-0.47635">
        <ele>44.76</ele>
        <time>2018-09-28T11:30:32Z</time>
      </trkpt>
      <trkpt lat="48.91948" lon="-0.47627">
        <ele>44.99</ele>
        <time>2018-09-28T11:30:48Z</time>
      </trkpt>
      <trkpt lat="48.91961" lon="-0.47622">
        <ele>44.95</ele>
        <time>2018-09-28T11:31:01Z</time>
      </trkpt>
      <trkpt lat="48.91976" lon="-0.47615">
        <ele>45.59</ele>
        <time>2018-09-28T11:31:15Z</time>
      </trkpt>
      <trkpt lat="48.91995" lon="-0.47607">
        <ele>46.16</ele>
        <time>2018-09-28T11:31:32Z</time>
      </trkpt>
      <trkpt lat="48.92015" lon="-0.476">
        <ele>46.91</ele>
        <time>2018-09-28T11:31:51Z</time>
      </trkpt>
      <trkpt lat="48.92017" lon="-0.47599">
        <ele>46.86</ele>
        <time>2018-09-28T11:31:53Z</time>
      </trkpt>
      <trkpt lat="48.9203" lon="-0.47593">
        <ele>47.44</ele>
        <time>2018-09-28T11:32:08Z</time>
      </trkpt>
      <trkpt lat="48.92043" lon="-0.47589">
        <ele>48.31</ele>
        <time>2018-09-28T11:32:19Z</time>
      </trkpt>
      <trkpt lat="48.92059" lon="-0.47585">
        <ele>48.05</ele>
        <time>2018-09-28T11:32:33Z</time>
      </trkpt>
      <trkpt lat="48.92072" lon="-0.47581">
        <ele>48.21</ele>
        <time>2018-09-28T11:32:45Z</time>
      </trkpt>
      <trkpt lat="48.92083" lon="-0.47579">
        <ele>47.97</ele>
        <time>2018-09-28T11:32:55Z</time>
      </trkpt>
      <trkpt lat="48.92099" lon="-0.47575">
        <ele>48.15</ele>
        <time>2018-09-28T11:33:10Z</time>
      </trkpt>
      <trkpt lat="48.92112" lon="-0.47572">
        <ele>48.01</ele>
        <time>2018-09-28T11:33:22Z</time>
      </trkpt>
      <trkpt lat="48.92117" lon="-0.4757">
        <ele>48.44</ele>
        <time>2018-09-28T11:33:26Z</time>
      </trkpt>
      <trkpt lat="48.92138" lon="-0.47565">
        <ele>49.17</ele>
        <time>2018-09-28T11:33:43Z</time>
      </trkpt>
      <trkpt lat="48.9214" lon="-0.47566">
        <ele>50.26</ele>
        <time>2018-09-28T11:33:57Z</time>
      </trkpt>
      <trkpt lat="48.92143" lon="-0.47564">
        <ele>49.49</ele>
        <time>2018-09-28T11:34:14Z</time>
      </trkpt>
      <trkpt lat="48.9215" lon="-0.47562">
        <ele>49.5</ele>
        <time>2018-09-28T11:34:27Z</time>
      </trkpt>
      <trkpt lat="48.92155" lon="-0.47561">
        <ele>49.41</ele>
        <time>2018-09-28T11:34:31Z</time>
      </trkpt>
      <trkpt lat="48.92168" lon="-0.47558">
        <ele>49.81</ele>
        <time>2018-09-28T11:34:43Z</time>
      </trkpt>
      <trkpt lat="48.92184" lon="-0.47554">
        <ele>50.02</ele>
        <time>2018-09-28T11:34:58Z</time>
      </trkpt>
      <trkpt lat="48.92199" lon="-0.47551">
        <ele>49.87</ele>
        <time>2018-09-28T11:35:12Z</time>
      </trkpt>
      <trkpt lat="48.92216" lon="-0.47545">
        <ele>50.63</ele>
        <time>2018-09-28T11:35:28Z</time>
      </trkpt>
      <trkpt lat="48.92229" lon="-0.47542">
        <ele>50.34</ele>
        <time>2018-09-28T11:35:40Z</time>
      </trkpt>
      <trkpt lat="48.92244" lon="-0.47538">
        <ele>50.12</ele>
        <time>2018-09-28T11:35:54Z</time>
      </trkpt>
      <trkpt lat="48.92265" lon="-0.47536">
        <ele>50.23</ele>
        <time>2018-09-28T11:36:13Z</time>
      </trkpt>
      <trkpt lat="48.92266" lon="-0.47536">
        <ele>50.31</ele>
        <time>2018-09-28T11:36:14Z</time>
      </trkpt>
      <trkpt lat="48.92276" lon="-0.47561">
        <ele>50.67</ele>
        <time>2018-09-28T11:36:32Z</time>
      </trkpt>
      <trkpt lat="48.92278" lon="-0.4757">
        <ele>50.6</ele>
        <time>2018-09-28T11:36:38Z</time>
      </trkpt>
      <trkpt lat="48.92283" lon="-0.47597">
        <ele>51.76</ele>
        <time>2018-09-28T11:36:54Z</time>
      </trkpt>
      <trkpt lat="48.92285" lon="-0.47604">
        <ele>51.75</ele>
        <time>2018-09-28T11:36:58Z</time>
      </trkpt>
      <trkpt lat="48.92286" lon="-0.47613">
        <ele>51.67</ele>
        <time>2018-09-28T11:37:05Z</time>
      </trkpt>
      <trkpt lat="48.92292" lon="-0.47643">
        <ele>52.99</ele>
        <time>2018-09-28T11:37:23Z</time>
      </trkpt>
      <trkpt lat="48.92293" lon="-0.47651">
        <ele>53.48</ele>
        <time>2018-09-28T11:37:28Z</time>
      </trkpt>
      <trkpt lat="48.92299" lon="-0.47678">
        <ele>53.64</ele>
        <time>2018-09-28T11:37:45Z</time>
      </trkpt>
      <trkpt lat="48.92305" lon="-0.47707">
        <ele>53.92</ele>
        <time>2018-09-28T11:38:02Z</time>
      </trkpt>
      <trkpt lat="48.92311" lon="-0.47735">
        <ele>53.75</ele>
        <time>2018-09-28T11:38:19Z</time>
      </trkpt>
      <trkpt lat="48.92317" lon="-0.47758">
        <ele>54.88</ele>
        <time>2018-09-28T11:38:34Z</time>
      </trkpt>
      <trkpt lat="48.92325" lon="-0.47788">
        <ele>53.49</ele>
        <time>2018-09-28T11:38:53Z</time>
      </trkpt>
      <trkpt lat="48.92332" lon="-0.4781">
        <ele>53</ele>
        <time>2018-09-28T11:39:07Z</time>
      </trkpt>
      <trkpt lat="48.92335" lon="-0.4782">
        <ele>53.41</ele>
        <time>2018-09-28T11:39:13Z</time>
      </trkpt>
      <trkpt lat="48.92337" lon="-0.47827">
        <ele>53.21</ele>
        <time>2018-09-28T11:39:17Z</time>
      </trkpt>
      <trkpt lat="48.92348" lon="-0.47852">
        <ele>53.01</ele>
        <time>2018-09-28T11:39:34Z</time>
      </trkpt>
      <trkpt lat="48.92363" lon="-0.47875">
        <ele>51.66</ele>
        <time>2018-09-28T11:39:52Z</time>
      </trkpt>
      <trkpt lat="48.92374" lon="-0.47896">
        <ele>51.35</ele>
        <time>2018-09-28T11:40:07Z</time>
      </trkpt>
      <trkpt lat="48.92383" lon="-0.47912">
        <ele>50.48</ele>
        <time>2018-09-28T11:40:21Z</time>
      </trkpt>
      <trkpt lat="48.92393" lon="-0.47928">
        <ele>49.04</ele>
        <time>2018-09-28T11:40:36Z</time>
      </trkpt>
      <trkpt lat="48.92406" lon="-0.47949">
        <ele>48.17</ele>
        <time>2018-09-28T11:40:52Z</time>
      </trkpt>
      <trkpt lat="48.92417" lon="-0.47964">
        <ele>46.76</ele>
        <time>2018-09-28T11:41:05Z</time>
      </trkpt>
      <trkpt lat="48.92428" lon="-0.4798">
        <ele>45.76</ele>
        <time>2018-09-28T11:41:20Z</time>
      </trkpt>
      <trkpt lat="48.92434" lon="-0.47989">
        <ele>44.48</ele>
        <time>2018-09-28T11:41:27Z</time>
      </trkpt>
      <trkpt lat="48.92442" lon="-0.48005">
        <ele>41.67</ele>
        <time>2018-09-28T11:41:45Z</time>
      </trkpt>
      <trkpt lat="48.92444" lon="-0.48034">
        <ele>38.8</ele>
        <time>2018-09-28T11:42:03Z</time>
      </trkpt>
      <trkpt lat="48.92443" lon="-0.48037">
        <ele>37.42</ele>
        <time>2018-09-28T11:42:07Z</time>
      </trkpt>
      <trkpt lat="48.92441" lon="-0.48048">
        <ele>35.82</ele>
        <time>2018-09-28T11:42:15Z</time>
      </trkpt>
      <trkpt lat="48.9244" lon="-0.48073">
        <ele>35.16</ele>
        <time>2018-09-28T11:42:30Z</time>
      </trkpt>
      <trkpt lat="48.92443" lon="-0.48079">
        <ele>34.88</ele>
        <time>2018-09-28T11:42:41Z</time>
      </trkpt>
      <trkpt lat="48.92448" lon="-0.48079">
        <ele>34.38</ele>
        <time>2018-09-28T11:42:45Z</time>
      </trkpt>
      <trkpt lat="48.92455" lon="-0.48082">
        <ele>34.72</ele>
        <time>2018-09-28T11:42:51Z</time>
      </trkpt>
      <trkpt lat="48.92458" lon="-0.48091">
        <ele>33.99</ele>
        <time>2018-09-28T11:43:05Z</time>
      </trkpt>
      <trkpt lat="48.92457" lon="-0.48089">
        <ele>34.2</ele>
        <time>2018-09-28T11:43:30Z</time>
      </trkpt>
      <trkpt lat="48.92456" lon="-0.48089">
        <ele>34.21</ele>
        <time>2018-09-28T11:43:57Z</time>
      </trkpt>
      <trkpt lat="48.92458" lon="-0.48087">
        <ele>34.24</ele>
        <time>2018-09-28T11:44:21Z</time>
      </trkpt>
      <trkpt lat="48.92464" lon="-0.48091">
        <ele>33.96</ele>
        <time>2018-09-28T11:44:36Z</time>
      </trkpt>
      <trkpt lat="48.92473" lon="-0.48092">
        <ele>33.08</ele>
        <time>2018-09-28T11:44:55Z</time>
      </trkpt>
      <trkpt lat="48.9248" lon="-0.48094">
        <ele>32.94</ele>
        <time>2018-09-28T11:45:03Z</time>
      </trkpt>
      <trkpt lat="48.92497" lon="-0.48094">
        <ele>32.62</ele>
        <time>2018-09-28T11:45:18Z</time>
      </trkpt>
      <trkpt lat="48.92511" lon="-0.48089">
        <ele>31.77</ele>
        <time>2018-09-28T11:45:32Z</time>
      </trkpt>
      <trkpt lat="48.92526" lon="-0.48079">
        <ele>31.19</ele>
        <time>2018-09-28T11:45:46Z</time>
      </trkpt>
      <trkpt lat="48.92536" lon="-0.48073">
        <ele>31.74</ele>
        <time>2018-09-28T11:45:55Z</time>
      </trkpt>
      <trkpt lat="48.92552" lon="-0.48062">
        <ele>30.87</ele>
        <time>2018-09-28T11:46:10Z</time>
      </trkpt>
      <trkpt lat="48.92567" lon="-0.48054">
        <ele>30.15</ele>
        <time>2018-09-28T11:46:24Z</time>
      </trkpt>
      <trkpt lat="48.92583" lon="-0.48043">
        <ele>31.3</ele>
        <time>2018-09-28T11:46:38Z</time>
      </trkpt>
      <trkpt lat="48.926" lon="-0.48036">
        <ele>31.93</ele>
        <time>2018-09-28T11:46:52Z</time>
      </trkpt>
      <trkpt lat="48.92606" lon="-0.48034">
        <ele>31.46</ele>
        <time>2018-09-28T11:46:57Z</time>
      </trkpt>
      <trkpt lat="48.92613" lon="-0.48032">
        <ele>31.34</ele>
        <time>2018-09-28T11:47:03Z</time>
      </trkpt>
      <trkpt lat="48.92626" lon="-0.48032">
        <ele>32.71</ele>
        <time>2018-09-28T11:47:13Z</time>
      </trkpt>
      <trkpt lat="48.92636" lon="-0.48033">
        <ele>32.03</ele>
        <time>2018-09-28T11:47:21Z</time>
      </trkpt>
      <trkpt lat="48.92646" lon="-0.48028">
        <ele>32.41</ele>
        <time>2018-09-28T11:47:35Z</time>
      </trkpt>
      <trkpt lat="48.92648" lon="-0.4803">
        <ele>32.2</ele>
        <time>2018-09-28T11:47:50Z</time>
      </trkpt>
      <trkpt lat="48.9265" lon="-0.4803">
        <ele>33.06</ele>
        <time>2018-09-28T11:48:09Z</time>
      </trkpt>
      <trkpt lat="48.92651" lon="-0.4803">
        <ele>32.5</ele>
        <time>2018-09-28T11:48:38Z</time>
      </trkpt>
      <trkpt lat="48.92652" lon="-0.4803">
        <ele>32.29</ele>
        <time>2018-09-28T11:49:02Z</time>
      </trkpt>
      <trkpt lat="48.92652" lon="-0.48028">
        <ele>32.18</ele>
        <time>2018-09-28T11:49:24Z</time>
      </trkpt>
      <trkpt lat="48.92653" lon="-0.48028">
        <ele>32.16</ele>
        <time>2018-09-28T11:49:44Z</time>
      </trkpt>
      <trkpt lat="48.92658" lon="-0.4803">
        <ele>32.72</ele>
        <time>2018-09-28T11:50:03Z</time>
      </trkpt>
      <trkpt lat="48.92671" lon="-0.4803">
        <ele>32.11</ele>
        <time>2018-09-28T11:50:19Z</time>
      </trkpt>
      <trkpt lat="48.92689" lon="-0.4803">
        <ele>32.04</ele>
        <time>2018-09-28T11:50:34Z</time>
      </trkpt>
      <trkpt lat="48.92715" lon="-0.48028">
        <ele>30.91</ele>
        <time>2018-09-28T11:50:54Z</time>
      </trkpt>
      <trkpt lat="48.92736" lon="-0.48028">
        <ele>34.2</ele>
        <time>2018-09-28T11:51:11Z</time>
      </trkpt>
      <trkpt lat="48.92737" lon="-0.48029">
        <ele>32.46</ele>
        <time>2018-09-28T11:51:12Z</time>
      </trkpt>
      <trkpt lat="48.9275" lon="-0.48042">
        <ele>32.5</ele>
        <time>2018-09-28T11:51:27Z</time>
      </trkpt>
      <trkpt lat="48.92754" lon="-0.48068">
        <ele>32.14</ele>
        <time>2018-09-28T11:51:44Z</time>
      </trkpt>
      <trkpt lat="48.92755" lon="-0.48097">
        <ele>32.28</ele>
        <time>2018-09-28T11:52:00Z</time>
      </trkpt>
      <trkpt lat="48.92755" lon="-0.48129">
        <ele>33.45</ele>
        <time>2018-09-28T11:52:18Z</time>
      </trkpt>
      <trkpt lat="48.92755" lon="-0.48132">
        <ele>33.43</ele>
        <time>2018-09-28T11:52:20Z</time>
      </trkpt>
      <trkpt lat="48.92754" lon="-0.48152">
        <ele>34.44</ele>
        <time>2018-09-28T11:52:31Z</time>
      </trkpt>
      <trkpt lat="48.92755" lon="-0.48164">
        <ele>34.42</ele>
        <time>2018-09-28T11:52:38Z</time>
      </trkpt>
      <trkpt lat="48.92757" lon="-0.48172">
        <ele>34.39</ele>
        <time>2018-09-28T11:52:43Z</time>
      </trkpt>
      <trkpt lat="48.92763" lon="-0.4818">
        <ele>35.73</ele>
        <time>2018-09-28T11:52:50Z</time>
      </trkpt>
      <trkpt lat="48.92781" lon="-0.48204">
        <ele>35.54</ele>
        <time>2018-09-28T11:53:11Z</time>
      </trkpt>
      <trkpt lat="48.92789" lon="-0.48227">
        <ele>36.5</ele>
        <time>2018-09-28T11:53:28Z</time>
      </trkpt>
      <trkpt lat="48.92792" lon="-0.48251">
        <ele>36.69</ele>
        <time>2018-09-28T11:53:43Z</time>
      </trkpt>
      <trkpt lat="48.92793" lon="-0.48275">
        <ele>37.82</ele>
        <time>2018-09-28T11:53:57Z</time>
      </trkpt>
      <trkpt lat="48.92797" lon="-0.48295">
        <ele>39.22</ele>
        <time>2018-09-28T11:54:09Z</time>
      </trkpt>
      <trkpt lat="48.92805" lon="-0.4831">
        <ele>40.31</ele>
        <time>2018-09-28T11:54:20Z</time>
      </trkpt>
      <trkpt lat="48.92807" lon="-0.48311">
        <ele>40.02</ele>
        <time>2018-09-28T11:54:22Z</time>
      </trkpt>
      <trkpt lat="48.92815" lon="-0.4831">
        <ele>40.94</ele>
        <time>2018-09-28T11:54:35Z</time>
      </trkpt>
      <trkpt lat="48.92817" lon="-0.48307">
        <ele>41.18</ele>
        <time>2018-09-28T11:54:41Z</time>
      </trkpt>
      <trkpt lat="48.92818" lon="-0.48282">
        <ele>41.71</ele>
        <time>2018-09-28T11:54:58Z</time>
      </trkpt>
      <trkpt lat="48.92817" lon="-0.48263">
        <ele>41.88</ele>
        <time>2018-09-28T11:55:12Z</time>
      </trkpt>
      <trkpt lat="48.92816" lon="-0.48238">
        <ele>42.42</ele>
        <time>2018-09-28T11:55:28Z</time>
      </trkpt>
      <trkpt lat="48.92816" lon="-0.48232">
        <ele>42.48</ele>
        <time>2018-09-28T11:55:32Z</time>
      </trkpt>
      <trkpt lat="48.92816" lon="-0.48225">
        <ele>42.91</ele>
        <time>2018-09-28T11:55:35Z</time>
      </trkpt>
      <trkpt lat="48.92815" lon="-0.48212">
        <ele>42.97</ele>
        <time>2018-09-28T11:55:42Z</time>
      </trkpt>
      <trkpt lat="48.92816" lon="-0.4819">
        <ele>43.37</ele>
        <time>2018-09-28T11:55:56Z</time>
      </trkpt>
      <trkpt lat="48.92819" lon="-0.48168">
        <ele>43.79</ele>
        <time>2018-09-28T11:56:10Z</time>
      </trkpt>
      <trkpt lat="48.92824" lon="-0.48133">
        <ele>44.39</ele>
        <time>2018-09-28T11:56:28Z</time>
      </trkpt>
      <trkpt lat="48.92835" lon="-0.4812">
        <ele>47.34</ele>
        <time>2018-09-28T11:56:45Z</time>
      </trkpt>
      <trkpt lat="48.92846" lon="-0.48114">
        <ele>49.78</ele>
        <time>2018-09-28T11:57:06Z</time>
      </trkpt>
      <trkpt lat="48.92856" lon="-0.48108">
        <ele>50.83</ele>
        <time>2018-09-28T11:57:27Z</time>
      </trkpt>
      <trkpt lat="48.92867" lon="-0.48103">
        <ele>51.53</ele>
        <time>2018-09-28T11:57:46Z</time>
      </trkpt>
      <trkpt lat="48.92877" lon="-0.48094">
        <ele>53.62</ele>
        <time>2018-09-28T11:58:04Z</time>
      </trkpt>
      <trkpt lat="48.9289" lon="-0.48085">
        <ele>56.11</ele>
        <time>2018-09-28T11:58:27Z</time>
      </trkpt>
      <trkpt lat="48.92901" lon="-0.48067">
        <ele>59.04</ele>
        <time>2018-09-28T11:58:48Z</time>
      </trkpt>
      <trkpt lat="48.92913" lon="-0.48061">
        <ele>60.97</ele>
        <time>2018-09-28T11:59:10Z</time>
      </trkpt>
      <trkpt lat="48.92921" lon="-0.48048">
        <ele>62.5</ele>
        <time>2018-09-28T11:59:27Z</time>
      </trkpt>
      <trkpt lat="48.92928" lon="-0.48039">
        <ele>64.18</ele>
        <time>2018-09-28T11:59:47Z</time>
      </trkpt>
      <trkpt lat="48.92935" lon="-0.48025">
        <ele>66.35</ele>
        <time>2018-09-28T12:00:09Z</time>
      </trkpt>
      <trkpt lat="48.92945" lon="-0.48011">
        <ele>67.86</ele>
        <time>2018-09-28T12:00:29Z</time>
      </trkpt>
      <trkpt lat="48.92952" lon="-0.47995">
        <ele>68.79</ele>
        <time>2018-09-28T12:00:53Z</time>
      </trkpt>
      <trkpt lat="48.92955" lon="-0.47978">
        <ele>71.51</ele>
        <time>2018-09-28T12:01:11Z</time>
      </trkpt>
      <trkpt lat="48.92961" lon="-0.47965">
        <ele>73.02</ele>
        <time>2018-09-28T12:01:32Z</time>
      </trkpt>
      <trkpt lat="48.92965" lon="-0.47944">
        <ele>75.79</ele>
        <time>2018-09-28T12:01:52Z</time>
      </trkpt>
      <trkpt lat="48.92968" lon="-0.47925">
        <ele>76.86</ele>
        <time>2018-09-28T12:02:15Z</time>
      </trkpt>
      <trkpt lat="48.92975" lon="-0.47905">
        <ele>77.95</ele>
        <time>2018-09-28T12:02:39Z</time>
      </trkpt>
      <trkpt lat="48.92979" lon="-0.47881">
        <ele>78.59</ele>
        <time>2018-09-28T12:03:01Z</time>
      </trkpt>
      <trkpt lat="48.92973" lon="-0.47874">
        <ele>77.45</ele>
        <time>2018-09-28T12:03:20Z</time>
      </trkpt>
      <trkpt lat="48.92961" lon="-0.47877">
        <ele>80.32</ele>
        <time>2018-09-28T12:03:40Z</time>
      </trkpt>
      <trkpt lat="48.92951" lon="-0.47878">
        <ele>83.6</ele>
        <time>2018-09-28T12:03:58Z</time>
      </trkpt>
      <trkpt lat="48.9294" lon="-0.47878">
        <ele>86.58</ele>
        <time>2018-09-28T12:04:18Z</time>
      </trkpt>
      <trkpt lat="48.92932" lon="-0.47877">
        <ele>88.58</ele>
        <time>2018-09-28T12:04:37Z</time>
      </trkpt>
      <trkpt lat="48.92925" lon="-0.4788">
        <ele>90.83</ele>
        <time>2018-09-28T12:04:55Z</time>
      </trkpt>
      <trkpt lat="48.92921" lon="-0.47878">
        <ele>91.98</ele>
        <time>2018-09-28T12:05:11Z</time>
      </trkpt>
      <trkpt lat="48.92916" lon="-0.47869">
        <ele>94.32</ele>
        <time>2018-09-28T12:05:28Z</time>
      </trkpt>
      <trkpt lat="48.92916" lon="-0.47861">
        <ele>97.58</ele>
        <time>2018-09-28T12:05:40Z</time>
      </trkpt>
      <trkpt lat="48.9292" lon="-0.4785">
        <ele>100.66</ele>
        <time>2018-09-28T12:06:01Z</time>
      </trkpt>
      <trkpt lat="48.9292" lon="-0.47843">
        <ele>103.1</ele>
        <time>2018-09-28T12:06:21Z</time>
      </trkpt>
      <trkpt lat="48.9292" lon="-0.47839">
        <ele>104.7</ele>
        <time>2018-09-28T12:06:39Z</time>
      </trkpt>
      <trkpt lat="48.92919" lon="-0.47831">
        <ele>108.28</ele>
        <time>2018-09-28T12:06:56Z</time>
      </trkpt>
      <trkpt lat="48.92918" lon="-0.47822">
        <ele>110.72</ele>
        <time>2018-09-28T12:07:16Z</time>
      </trkpt>
      <trkpt lat="48.92922" lon="-0.47816">
        <ele>111.93</ele>
        <time>2018-09-28T12:07:34Z</time>
      </trkpt>
      <trkpt lat="48.92922" lon="-0.4781">
        <ele>113.38</ele>
        <time>2018-09-28T12:07:57Z</time>
      </trkpt>
      <trkpt lat="48.92922" lon="-0.47798">
        <ele>115.74</ele>
        <time>2018-09-28T12:08:13Z</time>
      </trkpt>
      <trkpt lat="48.92922" lon="-0.4779">
        <ele>119</ele>
        <time>2018-09-28T12:08:28Z</time>
      </trkpt>
      <trkpt lat="48.92925" lon="-0.47784">
        <ele>122.03</ele>
        <time>2018-09-28T12:08:44Z</time>
      </trkpt>
      <trkpt lat="48.92927" lon="-0.47776">
        <ele>124.39</ele>
        <time>2018-09-28T12:09:03Z</time>
      </trkpt>
      <trkpt lat="48.92926" lon="-0.47771">
        <ele>124.92</ele>
        <time>2018-09-28T12:09:22Z</time>
      </trkpt>
      <trkpt lat="48.92927" lon="-0.47761">
        <ele>127.81</ele>
        <time>2018-09-28T12:09:42Z</time>
      </trkpt>
      <trkpt lat="48.92924" lon="-0.47749">
        <ele>130.35</ele>
        <time>2018-09-28T12:09:59Z</time>
      </trkpt>
      <trkpt lat="48.92921" lon="-0.47741">
        <ele>131.66</ele>
        <time>2018-09-28T12:10:14Z</time>
      </trkpt>
      <trkpt lat="48.92923" lon="-0.47731">
        <ele>133.59</ele>
        <time>2018-09-28T12:10:31Z</time>
      </trkpt>
      <trkpt lat="48.92928" lon="-0.47725">
        <ele>136.63</ele>
        <time>2018-09-28T12:10:45Z</time>
      </trkpt>
      <trkpt lat="48.92932" lon="-0.47718">
        <ele>138.82</ele>
        <time>2018-09-28T12:11:00Z</time>
      </trkpt>
      <trkpt lat="48.92936" lon="-0.47711">
        <ele>141.36</ele>
        <time>2018-09-28T12:11:20Z</time>
      </trkpt>
      <trkpt lat="48.92941" lon="-0.47706">
        <ele>144.34</ele>
        <time>2018-09-28T12:11:35Z</time>
      </trkpt>
      <trkpt lat="48.92945" lon="-0.47697">
        <ele>146.36</ele>
        <time>2018-09-28T12:11:50Z</time>
      </trkpt>
      <trkpt lat="48.92948" lon="-0.47696">
        <ele>147.53</ele>
        <time>2018-09-28T12:12:04Z</time>
      </trkpt>
      <trkpt lat="48.92953" lon="-0.47692">
        <ele>149.64</ele>
        <time>2018-09-28T12:12:22Z</time>
      </trkpt>
      <trkpt lat="48.92954" lon="-0.47687">
        <ele>151.4</ele>
        <time>2018-09-28T12:12:39Z</time>
      </trkpt>
      <trkpt lat="48.92955" lon="-0.47679">
        <ele>153.09</ele>
        <time>2018-09-28T12:12:59Z</time>
      </trkpt>
      <trkpt lat="48.9296" lon="-0.47672">
        <ele>156.24</ele>
        <time>2018-09-28T12:13:15Z</time>
      </trkpt>
      <trkpt lat="48.92964" lon="-0.47663">
        <ele>159.38</ele>
        <time>2018-09-28T12:13:35Z</time>
      </trkpt>
      <trkpt lat="48.92966" lon="-0.47648">
        <ele>160.57</ele>
        <time>2018-09-28T12:13:54Z</time>
      </trkpt>
      <trkpt lat="48.92967" lon="-0.47642">
        <ele>159.98</ele>
        <time>2018-09-28T12:14:09Z</time>
      </trkpt>
      <trkpt lat="48.92964" lon="-0.47643">
        <ele>159.86</ele>
        <time>2018-09-28T12:14:34Z</time>
      </trkpt>
      <trkpt lat="48.92966" lon="-0.47644">
        <ele>159.73</ele>
        <time>2018-09-28T12:15:03Z</time>
      </trkpt>
      <trkpt lat="48.92967" lon="-0.47644">
        <ele>159.65</ele>
        <time>2018-09-28T12:15:32Z</time>
      </trkpt>
      <trkpt lat="48.92967" lon="-0.47655">
        <ele>158.75</ele>
        <time>2018-09-28T12:15:49Z</time>
      </trkpt>
      <trkpt lat="48.92966" lon="-0.4766">
        <ele>158.81</ele>
        <time>2018-09-28T12:16:15Z</time>
      </trkpt>
      <trkpt lat="48.92964" lon="-0.47661">
        <ele>158.44</ele>
        <time>2018-09-28T12:16:54Z</time>
      </trkpt>
      <trkpt lat="48.92964" lon="-0.4766">
        <ele>158.21</ele>
        <time>2018-09-28T12:17:24Z</time>
      </trkpt>
      <trkpt lat="48.92964" lon="-0.4766">
        <ele>158.27</ele>
        <time>2018-09-28T12:17:51Z</time>
      </trkpt>
      <trkpt lat="48.92965" lon="-0.47661">
        <ele>158.44</ele>
        <time>2018-09-28T12:18:17Z</time>
      </trkpt>
      <trkpt lat="48.92967" lon="-0.47656">
        <ele>158.61</ele>
        <time>2018-09-28T12:18:42Z</time>
      </trkpt>
      <trkpt lat="48.92967" lon="-0.47651">
        <ele>158.76</ele>
        <time>2018-09-28T12:19:05Z</time>
      </trkpt>
      <trkpt lat="48.92965" lon="-0.47651">
        <ele>158.8</ele>
        <time>2018-09-28T12:19:36Z</time>
      </trkpt>
      <trkpt lat="48.92965" lon="-0.47651">
        <ele>158.97</ele>
        <time>2018-09-28T12:20:07Z</time>
      </trkpt>
      <trkpt lat="48.92966" lon="-0.4765">
        <ele>159.14</ele>
        <time>2018-09-28T12:20:34Z</time>
      </trkpt>
      <trkpt lat="48.92967" lon="-0.47646">
        <ele>159.09</ele>
        <time>2018-09-28T12:20:57Z</time>
      </trkpt>
      <trkpt lat="48.92964" lon="-0.47647">
        <ele>159.52</ele>
        <time>2018-09-28T12:21:26Z</time>
      </trkpt>
      <trkpt lat="48.92965" lon="-0.47645">
        <ele>159.47</ele>
        <time>2018-09-28T12:21:53Z</time>
      </trkpt>
      <trkpt lat="48.92964" lon="-0.47644">
        <ele>159.82</ele>
        <time>2018-09-28T12:22:24Z</time>
      </trkpt>
      <trkpt lat="48.92965" lon="-0.47643">
        <ele>160.08</ele>
        <time>2018-09-28T12:22:53Z</time>
      </trkpt>
      <trkpt lat="48.92965" lon="-0.47643">
        <ele>160.32</ele>
        <time>2018-09-28T12:23:19Z</time>
      </trkpt>
      <trkpt lat="48.9297" lon="-0.47636">
        <ele>158.9</ele>
        <time>2018-09-28T12:23:38Z</time>
      </trkpt>
      <trkpt lat="48.92972" lon="-0.47629">
        <ele>156.86</ele>
        <time>2018-09-28T12:23:58Z</time>
      </trkpt>
      <trkpt lat="48.92973" lon="-0.47625">
        <ele>155.62</ele>
        <time>2018-09-28T12:24:25Z</time>
      </trkpt>
      <trkpt lat="48.92975" lon="-0.47618">
        <ele>152.89</ele>
        <time>2018-09-28T12:24:40Z</time>
      </trkpt>
      <trkpt lat="48.92978" lon="-0.47604">
        <ele>151.17</ele>
        <time>2018-09-28T12:24:55Z</time>
      </trkpt>
      <trkpt lat="48.92981" lon="-0.47585">
        <ele>149.94</ele>
        <time>2018-09-28T12:25:12Z</time>
      </trkpt>
      <trkpt lat="48.92984" lon="-0.4757">
        <ele>148.45</ele>
        <time>2018-09-28T12:25:28Z</time>
      </trkpt>
      <trkpt lat="48.92981" lon="-0.47558">
        <ele>147.48</ele>
        <time>2018-09-28T12:25:49Z</time>
      </trkpt>
      <trkpt lat="48.92978" lon="-0.47537">
        <ele>146.28</ele>
        <time>2018-09-28T12:26:04Z</time>
      </trkpt>
      <trkpt lat="48.92985" lon="-0.4753">
        <ele>144.29</ele>
        <time>2018-09-28T12:26:22Z</time>
      </trkpt>
      <trkpt lat="48.92987" lon="-0.47523">
        <ele>141.21</ele>
        <time>2018-09-28T12:26:37Z</time>
      </trkpt>
      <trkpt lat="48.92992" lon="-0.47513">
        <ele>139.24</ele>
        <time>2018-09-28T12:26:52Z</time>
      </trkpt>
      <trkpt lat="48.92994" lon="-0.47505">
        <ele>137.64</ele>
        <time>2018-09-28T12:27:01Z</time>
      </trkpt>
      <trkpt lat="48.92994" lon="-0.47493">
        <ele>135.85</ele>
        <time>2018-09-28T12:27:11Z</time>
      </trkpt>
      <trkpt lat="48.92994" lon="-0.47464">
        <ele>133.53</ele>
        <time>2018-09-28T12:27:31Z</time>
      </trkpt>
      <trkpt lat="48.92994" lon="-0.47441">
        <ele>130.88</ele>
        <time>2018-09-28T12:27:49Z</time>
      </trkpt>
      <trkpt lat="48.92995" lon="-0.47441">
        <ele>131.22</ele>
        <time>2018-09-28T12:28:14Z</time>
      </trkpt>
      <trkpt lat="48.92995" lon="-0.47429">
        <ele>129.95</ele>
        <time>2018-09-28T12:28:42Z</time>
      </trkpt>
      <trkpt lat="48.92991" lon="-0.47405">
        <ele>128.51</ele>
        <time>2018-09-28T12:29:02Z</time>
      </trkpt>
      <trkpt lat="48.92986" lon="-0.47382">
        <ele>127.27</ele>
        <time>2018-09-28T12:29:23Z</time>
      </trkpt>
      <trkpt lat="48.92982" lon="-0.4736">
        <ele>125.47</ele>
        <time>2018-09-28T12:29:46Z</time>
      </trkpt>
      <trkpt lat="48.92979" lon="-0.47339">
        <ele>123.89</ele>
        <time>2018-09-28T12:30:10Z</time>
      </trkpt>
      <trkpt lat="48.92972" lon="-0.47314">
        <ele>122.68</ele>
        <time>2018-09-28T12:30:28Z</time>
      </trkpt>
      <trkpt lat="48.92972" lon="-0.47303">
        <ele>121.2</ele>
        <time>2018-09-28T12:30:47Z</time>
      </trkpt>
      <trkpt lat="48.92966" lon="-0.4729">
        <ele>118.13</ele>
        <time>2018-09-28T12:31:01Z</time>
      </trkpt>
      <trkpt lat="48.92964" lon="-0.47288">
        <ele>118.13</ele>
        <time>2018-09-28T12:31:03Z</time>
      </trkpt>
      <trkpt lat="48.92956" lon="-0.47261">
        <ele>116.23</ele>
        <time>2018-09-28T12:31:22Z</time>
      </trkpt>
      <trkpt lat="48.92952" lon="-0.47251">
        <ele>115.92</ele>
        <time>2018-09-28T12:31:37Z</time>
      </trkpt>
      <trkpt lat="48.92948" lon="-0.47232">
        <ele>114.9</ele>
        <time>2018-09-28T12:31:56Z</time>
      </trkpt>
      <trkpt lat="48.92948" lon="-0.47206">
        <ele>113.96</ele>
        <time>2018-09-28T12:32:15Z</time>
      </trkpt>
      <trkpt lat="48.92943" lon="-0.47187">
        <ele>114.02</ele>
        <time>2018-09-28T12:32:32Z</time>
      </trkpt>
      <trkpt lat="48.92927" lon="-0.47169">
        <ele>112.07</ele>
        <time>2018-09-28T12:32:55Z</time>
      </trkpt>
      <trkpt lat="48.92914" lon="-0.47155">
        <ele>111.58</ele>
        <time>2018-09-28T12:33:13Z</time>
      </trkpt>
      <trkpt lat="48.92897" lon="-0.47133">
        <ele>110.59</ele>
        <time>2018-09-28T12:33:35Z</time>
      </trkpt>
      <trkpt lat="48.92886" lon="-0.47111">
        <ele>108.37</ele>
        <time>2018-09-28T12:33:53Z</time>
      </trkpt>
      <trkpt lat="48.92879" lon="-0.47094">
        <ele>107.19</ele>
        <time>2018-09-28T12:34:08Z</time>
      </trkpt>
      <trkpt lat="48.92874" lon="-0.47083">
        <ele>106.12</ele>
        <time>2018-09-28T12:34:24Z</time>
      </trkpt>
      <trkpt lat="48.92872" lon="-0.47079">
        <ele>106.49</ele>
        <time>2018-09-28T12:34:45Z</time>
      </trkpt>
      <trkpt lat="48.92871" lon="-0.47082">
        <ele>106.35</ele>
        <time>2018-09-28T12:35:12Z</time>
      </trkpt>
      <trkpt lat="48.92872" lon="-0.47084">
        <ele>106.38</ele>
        <time>2018-09-28T12:35:40Z</time>
      </trkpt>
      <trkpt lat="48.92868" lon="-0.47086">
        <ele>105.62</ele>
        <time>2018-09-28T12:36:06Z</time>
      </trkpt>
      <trkpt lat="48.92861" lon="-0.47073">
        <ele>106.18</ele>
        <time>2018-09-28T12:36:21Z</time>
      </trkpt>
      <trkpt lat="48.92852" lon="-0.47056">
        <ele>104.53</ele>
        <time>2018-09-28T12:36:41Z</time>
      </trkpt>
      <trkpt lat="48.92845" lon="-0.47032">
        <ele>104.43</ele>
        <time>2018-09-28T12:37:01Z</time>
      </trkpt>
      <trkpt lat="48.92836" lon="-0.47013">
        <ele>102.63</ele>
        <time>2018-09-28T12:37:22Z</time>
      </trkpt>
      <trkpt lat="48.92819" lon="-0.47002">
        <ele>102.97</ele>
        <time>2018-09-28T12:37:40Z</time>
      </trkpt>
      <trkpt lat="48.92808" lon="-0.46997">
        <ele>102.76</ele>
        <time>2018-09-28T12:37:57Z</time>
      </trkpt>
      <trkpt lat="48.92797" lon="-0.46988">
        <ele>102.72</ele>
        <time>2018-09-28T12:38:16Z</time>
      </trkpt>
      <trkpt lat="48.92782" lon="-0.46969">
        <ele>102.44</ele>
        <time>2018-09-28T12:38:37Z</time>
      </trkpt>
      <trkpt lat="48.92775" lon="-0.46956">
        <ele>102.7</ele>
        <time>2018-09-28T12:38:50Z</time>
      </trkpt>
      <trkpt lat="48.92767" lon="-0.46946">
        <ele>102.73</ele>
        <time>2018-09-28T12:39:14Z</time>
      </trkpt>
      <trkpt lat="48.92756" lon="-0.46942">
        <ele>102.93</ele>
        <time>2018-09-28T12:39:35Z</time>
      </trkpt>
      <trkpt lat="48.9274" lon="-0.46925">
        <ele>103.87</ele>
        <time>2018-09-28T12:39:57Z</time>
      </trkpt>
      <trkpt lat="48.92734" lon="-0.46923">
        <ele>103.56</ele>
        <time>2018-09-28T12:40:05Z</time>
      </trkpt>
      <trkpt lat="48.92714" lon="-0.46915">
        <ele>104.29</ele>
        <time>2018-09-28T12:40:24Z</time>
      </trkpt>
      <trkpt lat="48.92698" lon="-0.46903">
        <ele>104.45</ele>
        <time>2018-09-28T12:40:43Z</time>
      </trkpt>
      <trkpt lat="48.92681" lon="-0.4689">
        <ele>104.94</ele>
        <time>2018-09-28T12:41:04Z</time>
      </trkpt>
      <trkpt lat="48.92663" lon="-0.46879">
        <ele>104.65</ele>
        <time>2018-09-28T12:41:26Z</time>
      </trkpt>
      <trkpt lat="48.9264" lon="-0.46875">
        <ele>101.9</ele>
        <time>2018-09-28T12:41:48Z</time>
      </trkpt>
      <trkpt lat="48.92623" lon="-0.46865">
        <ele>100.16</ele>
        <time>2018-09-28T12:42:09Z</time>
      </trkpt>
      <trkpt lat="48.92604" lon="-0.4686">
        <ele>98.57</ele>
        <time>2018-09-28T12:42:29Z</time>
      </trkpt>
      <trkpt lat="48.9259" lon="-0.46852">
        <ele>97.69</ele>
        <time>2018-09-28T12:42:50Z</time>
      </trkpt>
      <trkpt lat="48.92583" lon="-0.46851">
        <ele>96.51</ele>
        <time>2018-09-28T12:43:08Z</time>
      </trkpt>
      <trkpt lat="48.92565" lon="-0.46847">
        <ele>95.84</ele>
        <time>2018-09-28T12:43:31Z</time>
      </trkpt>
      <trkpt lat="48.92549" lon="-0.46846">
        <ele>95.07</ele>
        <time>2018-09-28T12:43:51Z</time>
      </trkpt>
      <trkpt lat="48.92531" lon="-0.46844">
        <ele>92.2</ele>
        <time>2018-09-28T12:44:13Z</time>
      </trkpt>
      <trkpt lat="48.9251" lon="-0.46853">
        <ele>92.42</ele>
        <time>2018-09-28T12:44:34Z</time>
      </trkpt>
      <trkpt lat="48.92489" lon="-0.46862">
        <ele>91.24</ele>
        <time>2018-09-28T12:44:55Z</time>
      </trkpt>
      <trkpt lat="48.92473" lon="-0.46872">
        <ele>90.27</ele>
        <time>2018-09-28T12:45:14Z</time>
      </trkpt>
      <trkpt lat="48.92467" lon="-0.46876">
        <ele>89.38</ele>
        <time>2018-09-28T12:45:19Z</time>
      </trkpt>
      <trkpt lat="48.92449" lon="-0.46884">
        <ele>88.3</ele>
        <time>2018-09-28T12:45:38Z</time>
      </trkpt>
      <trkpt lat="48.92431" lon="-0.46886">
        <ele>87.11</ele>
        <time>2018-09-28T12:45:57Z</time>
      </trkpt>
      <trkpt lat="48.92412" lon="-0.46887">
        <ele>85.24</ele>
        <time>2018-09-28T12:46:19Z</time>
      </trkpt>
      <trkpt lat="48.92391" lon="-0.46901">
        <ele>83.76</ele>
        <time>2018-09-28T12:46:33Z</time>
      </trkpt>
      <trkpt lat="48.92375" lon="-0.46911">
        <ele>82.61</ele>
        <time>2018-09-28T12:46:48Z</time>
      </trkpt>
      <trkpt lat="48.92359" lon="-0.46916">
        <ele>80.71</ele>
        <time>2018-09-28T12:47:05Z</time>
      </trkpt>
      <trkpt lat="48.92343" lon="-0.46921">
        <ele>79.39</ele>
        <time>2018-09-28T12:47:22Z</time>
      </trkpt>
      <trkpt lat="48.92329" lon="-0.46918">
        <ele>78.46</ele>
        <time>2018-09-28T12:47:36Z</time>
      </trkpt>
      <trkpt lat="48.92316" lon="-0.46906">
        <ele>76.18</ele>
        <time>2018-09-28T12:47:53Z</time>
      </trkpt>
      <trkpt lat="48.92306" lon="-0.46904">
        <ele>73.9</ele>
        <time>2018-09-28T12:48:09Z</time>
      </trkpt>
      <trkpt lat="48.9229" lon="-0.46909">
        <ele>73.63</ele>
        <time>2018-09-28T12:48:30Z</time>
      </trkpt>
      <trkpt lat="48.92275" lon="-0.46915">
        <ele>73.48</ele>
        <time>2018-09-28T12:48:52Z</time>
      </trkpt>
      <trkpt lat="48.92259" lon="-0.46913">
        <ele>73.86</ele>
        <time>2018-09-28T12:49:11Z</time>
      </trkpt>
      <trkpt lat="48.92239" lon="-0.4692">
        <ele>74.45</ele>
        <time>2018-09-28T12:49:32Z</time>
      </trkpt>
      <trkpt lat="48.92219" lon="-0.46925">
        <ele>74.13</ele>
        <time>2018-09-28T12:49:54Z</time>
      </trkpt>
      <trkpt lat="48.92213" lon="-0.46924">
        <ele>74.3</ele>
        <time>2018-09-28T12:50:02Z</time>
      </trkpt>
      <trkpt lat="48.92191" lon="-0.46931">
        <ele>73.95</ele>
        <time>2018-09-28T12:50:24Z</time>
      </trkpt>
      <trkpt lat="48.92174" lon="-0.46941">
        <ele>72.73</ele>
        <time>2018-09-28T12:50:40Z</time>
      </trkpt>
      <trkpt lat="48.92161" lon="-0.46953">
        <ele>71.48</ele>
        <time>2018-09-28T12:51:02Z</time>
      </trkpt>
      <trkpt lat="48.92157" lon="-0.46958">
        <ele>69.63</ele>
        <time>2018-09-28T12:51:21Z</time>
      </trkpt>
      <trkpt lat="48.92144" lon="-0.46959">
        <ele>68.73</ele>
        <time>2018-09-28T12:51:37Z</time>
      </trkpt>
      <trkpt lat="48.92122" lon="-0.4697">
        <ele>68.12</ele>
        <time>2018-09-28T12:51:58Z</time>
      </trkpt>
      <trkpt lat="48.92095" lon="-0.46974">
        <ele>68.36</ele>
        <time>2018-09-28T12:52:22Z</time>
      </trkpt>
      <trkpt lat="48.92077" lon="-0.46979">
        <ele>67.44</ele>
        <time>2018-09-28T12:52:41Z</time>
      </trkpt>
      <trkpt lat="48.92053" lon="-0.46994">
        <ele>65.61</ele>
        <time>2018-09-28T12:53:04Z</time>
      </trkpt>
      <trkpt lat="48.92033" lon="-0.47">
        <ele>64.93</ele>
        <time>2018-09-28T12:53:24Z</time>
      </trkpt>
      <trkpt lat="48.92026" lon="-0.47001">
        <ele>65.04</ele>
        <time>2018-09-28T12:53:28Z</time>
      </trkpt>
      <trkpt lat="48.92012" lon="-0.47">
        <ele>63.95</ele>
        <time>2018-09-28T12:53:43Z</time>
      </trkpt>
      <trkpt lat="48.91989" lon="-0.47005">
        <ele>63.96</ele>
        <time>2018-09-28T12:54:03Z</time>
      </trkpt>
      <trkpt lat="48.91968" lon="-0.47003">
        <ele>64.29</ele>
        <time>2018-09-28T12:54:23Z</time>
      </trkpt>
      <trkpt lat="48.91946" lon="-0.47001">
        <ele>62.35</ele>
        <time>2018-09-28T12:54:45Z</time>
      </trkpt>
      <trkpt lat="48.91921" lon="-0.46996">
        <ele>61.48</ele>
        <time>2018-09-28T12:55:06Z</time>
      </trkpt>
      <trkpt lat="48.91896" lon="-0.47002">
        <ele>60.16</ele>
        <time>2018-09-28T12:55:26Z</time>
      </trkpt>
      <trkpt lat="48.91881" lon="-0.46999">
        <ele>59.4</ele>
        <time>2018-09-28T12:55:42Z</time>
      </trkpt>
      <trkpt lat="48.91858" lon="-0.46992">
        <ele>57.43</ele>
        <time>2018-09-28T12:56:05Z</time>
      </trkpt>
      <trkpt lat="48.9184" lon="-0.46993">
        <ele>55.95</ele>
        <time>2018-09-28T12:56:22Z</time>
      </trkpt>
      <trkpt lat="48.91831" lon="-0.47002">
        <ele>54.89</ele>
        <time>2018-09-28T12:56:48Z</time>
      </trkpt>
      <trkpt lat="48.9183" lon="-0.47005">
        <ele>53.57</ele>
        <time>2018-09-28T12:56:51Z</time>
      </trkpt>
      <trkpt lat="48.91829" lon="-0.47007">
        <ele>53.52</ele>
        <time>2018-09-28T12:56:53Z</time>
      </trkpt>
      <trkpt lat="48.91824" lon="-0.47015">
        <ele>51.86</ele>
        <time>2018-09-28T12:57:09Z</time>
      </trkpt>
      <trkpt lat="48.91821" lon="-0.47021">
        <ele>51.44</ele>
        <time>2018-09-28T12:57:30Z</time>
      </trkpt>
      <trkpt lat="48.91816" lon="-0.47032">
        <ele>48.15</ele>
        <time>2018-09-28T12:57:42Z</time>
      </trkpt>
      <trkpt lat="48.91797" lon="-0.47035">
        <ele>44.88</ele>
        <time>2018-09-28T12:58:03Z</time>
      </trkpt>
      <trkpt lat="48.91783" lon="-0.47038">
        <ele>42.2</ele>
        <time>2018-09-28T12:58:20Z</time>
      </trkpt>
      <trkpt lat="48.91776" lon="-0.47042">
        <ele>41.11</ele>
        <time>2018-09-28T12:58:28Z</time>
      </trkpt>
      <trkpt lat="48.91774" lon="-0.47044">
        <ele>40.82</ele>
        <time>2018-09-28T12:58:30Z</time>
      </trkpt>
      <trkpt lat="48.91762" lon="-0.47063">
        <ele>38.09</ele>
        <time>2018-09-28T12:58:45Z</time>
      </trkpt>
      <trkpt lat="48.9176" lon="-0.47073">
        <ele>36.5</ele>
        <time>2018-09-28T12:58:52Z</time>
      </trkpt>
      <trkpt lat="48.91752" lon="-0.47092">
        <ele>33.34</ele>
        <time>2018-09-28T12:59:06Z</time>
      </trkpt>
      <trkpt lat="48.91739" lon="-0.4711">
        <ele>31.32</ele>
        <time>2018-09-28T12:59:23Z</time>
      </trkpt>
      <trkpt lat="48.91738" lon="-0.47108">
        <ele>31.45</ele>
        <time>2018-09-28T12:59:46Z</time>
      </trkpt>
      <trkpt lat="48.91739" lon="-0.47107">
        <ele>31.2</ele>
        <time>2018-09-28T13:00:15Z</time>
      </trkpt>
      <trkpt lat="48.91742" lon="-0.47104">
        <ele>31.36</ele>
        <time>2018-09-28T13:00:34Z</time>
      </trkpt>
      <trkpt lat="48.91742" lon="-0.47106">
        <ele>31.82</ele>
        <time>2018-09-28T13:00:51Z</time>
      </trkpt>
      <trkpt lat="48.91741" lon="-0.47105">
        <ele>31.43</ele>
        <time>2018-09-28T13:01:12Z</time>
      </trkpt>
      <trkpt lat="48.91741" lon="-0.47102">
        <ele>31.21</ele>
        <time>2018-09-28T13:01:33Z</time>
      </trkpt>
      <trkpt lat="48.91739" lon="-0.47102">
        <ele>31.84</ele>
        <time>2018-09-28T13:01:58Z</time>
      </trkpt>
      <trkpt lat="48.91738" lon="-0.47093">
        <ele>33.96</ele>
        <time>2018-09-28T13:02:14Z</time>
      </trkpt>
      <trkpt lat="48.91738" lon="-0.47088">
        <ele>35.24</ele>
        <time>2018-09-28T13:02:32Z</time>
      </trkpt>
      <trkpt lat="48.91738" lon="-0.47099">
        <ele>32.01</ele>
        <time>2018-09-28T13:02:44Z</time>
      </trkpt>
      <trkpt lat="48.91738" lon="-0.47104">
        <ele>31.52</ele>
        <time>2018-09-28T13:02:56Z</time>
      </trkpt>
      <trkpt lat="48.91733" lon="-0.47106">
        <ele>31.01</ele>
        <time>2018-09-28T13:03:08Z</time>
      </trkpt>
      <trkpt lat="48.91732" lon="-0.47105">
        <ele>31.25</ele>
        <time>2018-09-28T13:03:10Z</time>
      </trkpt>
      <trkpt lat="48.91729" lon="-0.47097">
        <ele>31.56</ele>
        <time>2018-09-28T13:03:17Z</time>
      </trkpt>
      <trkpt lat="48.9172" lon="-0.47074">
        <ele>31.85</ele>
        <time>2018-09-28T13:03:35Z</time>
      </trkpt>
      <trkpt lat="48.91715" lon="-0.47053">
        <ele>32.12</ele>
        <time>2018-09-28T13:03:50Z</time>
      </trkpt>
      <trkpt lat="48.91709" lon="-0.47039">
        <ele>33.24</ele>
        <time>2018-09-28T13:04:03Z</time>
      </trkpt>
      <trkpt lat="48.91708" lon="-0.47033">
        <ele>33.61</ele>
        <time>2018-09-28T13:04:08Z</time>
      </trkpt>
      <trkpt lat="48.91706" lon="-0.47029">
        <ele>33.09</ele>
        <time>2018-09-28T13:04:24Z</time>
      </trkpt>
      <trkpt lat="48.91701" lon="-0.47028">
        <ele>33.23</ele>
        <time>2018-09-28T13:04:31Z</time>
      </trkpt>
      <trkpt lat="48.91698" lon="-0.47026">
        <ele>33.19</ele>
        <time>2018-09-28T13:04:45Z</time>
      </trkpt>
      <trkpt lat="48.91696" lon="-0.47023">
        <ele>34.13</ele>
        <time>2018-09-28T13:05:02Z</time>
      </trkpt>
      <trkpt lat="48.91697" lon="-0.47023">
        <ele>34.08</ele>
        <time>2018-09-28T13:05:17Z</time>
      </trkpt>
      <trkpt lat="48.91694" lon="-0.47018">
        <ele>33.8</ele>
        <time>2018-09-28T13:05:36Z</time>
      </trkpt>
      <trkpt lat="48.91688" lon="-0.47015">
        <ele>34.49</ele>
        <time>2018-09-28T13:05:51Z</time>
      </trkpt>
      <trkpt lat="48.91686" lon="-0.47013">
        <ele>34.93</ele>
        <time>2018-09-28T13:05:53Z</time>
      </trkpt>
      <trkpt lat="48.91683" lon="-0.47011">
        <ele>34.83</ele>
        <time>2018-09-28T13:05:56Z</time>
      </trkpt>
      <trkpt lat="48.9168" lon="-0.47007">
        <ele>35.59</ele>
        <time>2018-09-28T13:06:00Z</time>
      </trkpt>
      <trkpt lat="48.91657" lon="-0.46993">
        <ele>36.9</ele>
        <time>2018-09-28T13:06:20Z</time>
      </trkpt>
      <trkpt lat="48.91651" lon="-0.46986">
        <ele>37.22</ele>
        <time>2018-09-28T13:06:28Z</time>
      </trkpt>
      <trkpt lat="48.91642" lon="-0.46971">
        <ele>38.81</ele>
        <time>2018-09-28T13:06:41Z</time>
      </trkpt>
      <trkpt lat="48.91637" lon="-0.4696">
        <ele>39.98</ele>
        <time>2018-09-28T13:06:49Z</time>
      </trkpt>
      <trkpt lat="48.91633" lon="-0.46949">
        <ele>40.18</ele>
        <time>2018-09-28T13:06:58Z</time>
      </trkpt>
      <trkpt lat="48.91627" lon="-0.46929">
        <ele>40.54</ele>
        <time>2018-09-28T13:07:12Z</time>
      </trkpt>
      <trkpt lat="48.91615" lon="-0.46903">
        <ele>41.78</ele>
        <time>2018-09-28T13:07:28Z</time>
      </trkpt>
      <trkpt lat="48.91608" lon="-0.46884">
        <ele>43.16</ele>
        <time>2018-09-28T13:07:43Z</time>
      </trkpt>
      <trkpt lat="48.91602" lon="-0.4687">
        <ele>43.69</ele>
        <time>2018-09-28T13:07:57Z</time>
      </trkpt>
      <trkpt lat="48.91595" lon="-0.46853">
        <ele>44.29</ele>
        <time>2018-09-28T13:08:09Z</time>
      </trkpt>
      <trkpt lat="48.91583" lon="-0.46836">
        <ele>45.43</ele>
        <time>2018-09-28T13:08:24Z</time>
      </trkpt>
      <trkpt lat="48.91575" lon="-0.46814">
        <ele>46.73</ele>
        <time>2018-09-28T13:08:41Z</time>
      </trkpt>
      <trkpt lat="48.91568" lon="-0.468">
        <ele>47.56</ele>
        <time>2018-09-28T13:09:01Z</time>
      </trkpt>
      <trkpt lat="48.9156" lon="-0.46781">
        <ele>48.74</ele>
        <time>2018-09-28T13:09:20Z</time>
      </trkpt>
      <trkpt lat="48.9155" lon="-0.46749">
        <ele>50.37</ele>
        <time>2018-09-28T13:09:42Z</time>
      </trkpt>
      <trkpt lat="48.9154" lon="-0.46708">
        <ele>51.12</ele>
        <time>2018-09-28T13:10:06Z</time>
      </trkpt>
      <trkpt lat="48.91533" lon="-0.46672">
        <ele>53.37</ele>
        <time>2018-09-28T13:10:29Z</time>
      </trkpt>
      <trkpt lat="48.91528" lon="-0.46634">
        <ele>55.69</ele>
        <time>2018-09-28T13:10:50Z</time>
      </trkpt>
      <trkpt lat="48.91523" lon="-0.46601">
        <ele>56.2</ele>
        <time>2018-09-28T13:11:10Z</time>
      </trkpt>
      <trkpt lat="48.91521" lon="-0.46578">
        <ele>57.5</ele>
        <time>2018-09-28T13:11:24Z</time>
      </trkpt>
      <trkpt lat="48.91517" lon="-0.46539">
        <ele>57.79</ele>
        <time>2018-09-28T13:11:43Z</time>
      </trkpt>
      <trkpt lat="48.91517" lon="-0.46497">
        <ele>58.81</ele>
        <time>2018-09-28T13:12:07Z</time>
      </trkpt>
      <trkpt lat="48.91518" lon="-0.46459">
        <ele>59.47</ele>
        <time>2018-09-28T13:12:29Z</time>
      </trkpt>
      <trkpt lat="48.91526" lon="-0.4642">
        <ele>60.61</ele>
        <time>2018-09-28T13:12:52Z</time>
      </trkpt>
      <trkpt lat="48.91536" lon="-0.46377">
        <ele>61.86</ele>
        <time>2018-09-28T13:13:19Z</time>
      </trkpt>
      <trkpt lat="48.91537" lon="-0.46372">
        <ele>62.15</ele>
        <time>2018-09-28T13:13:22Z</time>
      </trkpt>
      <trkpt lat="48.91542" lon="-0.46346">
        <ele>62.84</ele>
        <time>2018-09-28T13:13:40Z</time>
      </trkpt>
      <trkpt lat="48.91545" lon="-0.46318">
        <ele>63.63</ele>
        <time>2018-09-28T13:13:57Z</time>
      </trkpt>
      <trkpt lat="48.91551" lon="-0.46281">
        <ele>64.95</ele>
        <time>2018-09-28T13:14:17Z</time>
      </trkpt>
      <trkpt lat="48.91552" lon="-0.46277">
        <ele>65.07</ele>
        <time>2018-09-28T13:14:20Z</time>
      </trkpt>
      <trkpt lat="48.91556" lon="-0.46256">
        <ele>66.21</ele>
        <time>2018-09-28T13:14:35Z</time>
      </trkpt>
      <trkpt lat="48.91558" lon="-0.46237">
        <ele>67.13</ele>
        <time>2018-09-28T13:14:48Z</time>
      </trkpt>
      <trkpt lat="48.91563" lon="-0.46218">
        <ele>67.42</ele>
        <time>2018-09-28T13:15:02Z</time>
      </trkpt>
      <trkpt lat="48.91562" lon="-0.4621">
        <ele>67.35</ele>
        <time>2018-09-28T13:15:16Z</time>
      </trkpt>
      <trkpt lat="48.91561" lon="-0.46208">
        <ele>67.88</ele>
        <time>2018-09-28T13:15:46Z</time>
      </trkpt>
      <trkpt lat="48.91561" lon="-0.46209">
        <ele>67.26</ele>
        <time>2018-09-28T13:16:13Z</time>
      </trkpt>
      <trkpt lat="48.91562" lon="-0.46208">
        <ele>67.81</ele>
        <time>2018-09-28T13:16:40Z</time>
      </trkpt>
      <trkpt lat="48.91562" lon="-0.46209">
        <ele>67.26</ele>
        <time>2018-09-28T13:17:03Z</time>
      </trkpt>
      <trkpt lat="48.91564" lon="-0.46208">
        <ele>68.15</ele>
        <time>2018-09-28T13:17:34Z</time>
      </trkpt>
      <trkpt lat="48.91566" lon="-0.46205">
        <ele>67.52</ele>
        <time>2018-09-28T13:18:03Z</time>
      </trkpt>
      <trkpt lat="48.91572" lon="-0.46181">
        <ele>69.73</ele>
        <time>2018-09-28T13:18:26Z</time>
      </trkpt>
      <trkpt lat="48.9157" lon="-0.46165">
        <ele>70.65</ele>
        <time>2018-09-28T13:18:43Z</time>
      </trkpt>
      <trkpt lat="48.91568" lon="-0.46149">
        <ele>72.48</ele>
        <time>2018-09-28T13:19:00Z</time>
      </trkpt>
      <trkpt lat="48.91568" lon="-0.46139">
        <ele>72.57</ele>
        <time>2018-09-28T13:19:17Z</time>
      </trkpt>
      <trkpt lat="48.91567" lon="-0.46136">
        <ele>72.76</ele>
        <time>2018-09-28T13:19:19Z</time>
      </trkpt>
      <trkpt lat="48.9156" lon="-0.4612">
        <ele>74.79</ele>
        <time>2018-09-28T13:19:36Z</time>
      </trkpt>
      <trkpt lat="48.91554" lon="-0.46094">
        <ele>75.69</ele>
        <time>2018-09-28T13:19:55Z</time>
      </trkpt>
      <trkpt lat="48.91546" lon="-0.46071">
        <ele>76.72</ele>
        <time>2018-09-28T13:20:13Z</time>
      </trkpt>
      <trkpt lat="48.91536" lon="-0.46045">
        <ele>78.18</ele>
        <time>2018-09-28T13:20:34Z</time>
      </trkpt>
      <trkpt lat="48.91528" lon="-0.46016">
        <ele>78.94</ele>
        <time>2018-09-28T13:20:53Z</time>
      </trkpt>
      <trkpt lat="48.91522" lon="-0.46002">
        <ele>80.33</ele>
        <time>2018-09-28T13:21:04Z</time>
      </trkpt>
      <trkpt lat="48.91519" lon="-0.45991">
        <ele>81.54</ele>
        <time>2018-09-28T13:21:13Z</time>
      </trkpt>
      <trkpt lat="48.91516" lon="-0.45983">
        <ele>82.25</ele>
        <time>2018-09-28T13:21:20Z</time>
      </trkpt>
      <trkpt lat="48.91508" lon="-0.45966">
        <ele>82.34</ele>
        <time>2018-09-28T13:21:34Z</time>
      </trkpt>
      <trkpt lat="48.91503" lon="-0.45955">
        <ele>82.66</ele>
        <time>2018-09-28T13:21:42Z</time>
      </trkpt>
      <trkpt lat="48.91494" lon="-0.45934">
        <ele>82.68</ele>
        <time>2018-09-28T13:21:58Z</time>
      </trkpt>
      <trkpt lat="48.91486" lon="-0.45914">
        <ele>83.28</ele>
        <time>2018-09-28T13:22:14Z</time>
      </trkpt>
      <trkpt lat="48.91478" lon="-0.45891">
        <ele>83.34</ele>
        <time>2018-09-28T13:22:30Z</time>
      </trkpt>
      <trkpt lat="48.91476" lon="-0.45886">
        <ele>83.81</ele>
        <time>2018-09-28T13:22:33Z</time>
      </trkpt>
      <trkpt lat="48.91473" lon="-0.45879">
        <ele>84.34</ele>
        <time>2018-09-28T13:22:38Z</time>
      </trkpt>
      <trkpt lat="48.91468" lon="-0.45865">
        <ele>86.15</ele>
        <time>2018-09-28T13:22:48Z</time>
      </trkpt>
      <trkpt lat="48.91467" lon="-0.45861">
        <ele>85.89</ele>
        <time>2018-09-28T13:22:50Z</time>
      </trkpt>
      <trkpt lat="48.91466" lon="-0.45834">
        <ele>85.92</ele>
        <time>2018-09-28T13:23:07Z</time>
      </trkpt>
      <trkpt lat="48.91465" lon="-0.45829">
        <ele>85.6</ele>
        <time>2018-09-28T13:23:11Z</time>
      </trkpt>
      <trkpt lat="48.91467" lon="-0.45801">
        <ele>86.19</ele>
        <time>2018-09-28T13:23:28Z</time>
      </trkpt>
      <trkpt lat="48.9146" lon="-0.45781">
        <ele>86.07</ele>
        <time>2018-09-28T13:23:42Z</time>
      </trkpt>
      <trkpt lat="48.91448" lon="-0.45767">
        <ele>86.82</ele>
        <time>2018-09-28T13:23:57Z</time>
      </trkpt>
      <trkpt lat="48.91447" lon="-0.45764">
        <ele>87.12</ele>
        <time>2018-09-28T13:23:59Z</time>
      </trkpt>
      <trkpt lat="48.91442" lon="-0.45759">
        <ele>87.65</ele>
        <time>2018-09-28T13:24:04Z</time>
      </trkpt>
      <trkpt lat="48.91432" lon="-0.45741">
        <ele>90.18</ele>
        <time>2018-09-28T13:24:21Z</time>
      </trkpt>
      <trkpt lat="48.91423" lon="-0.45719">
        <ele>93.2</ele>
        <time>2018-09-28T13:24:39Z</time>
      </trkpt>
      <trkpt lat="48.91417" lon="-0.45698">
        <ele>94.41</ele>
        <time>2018-09-28T13:24:54Z</time>
      </trkpt>
      <trkpt lat="48.91411" lon="-0.45678">
        <ele>95.44</ele>
        <time>2018-09-28T13:25:06Z</time>
      </trkpt>
      <trkpt lat="48.9141" lon="-0.45675">
        <ele>95.6</ele>
        <time>2018-09-28T13:25:08Z</time>
      </trkpt>
      <trkpt lat="48.91402" lon="-0.45654">
        <ele>96.84</ele>
        <time>2018-09-28T13:25:23Z</time>
      </trkpt>
      <trkpt lat="48.91395" lon="-0.45634">
        <ele>98.32</ele>
        <time>2018-09-28T13:25:37Z</time>
      </trkpt>
      <trkpt lat="48.91388" lon="-0.4561">
        <ele>99.51</ele>
        <time>2018-09-28T13:25:54Z</time>
      </trkpt>
      <trkpt lat="48.91386" lon="-0.45594">
        <ele>101.3</ele>
        <time>2018-09-28T13:26:07Z</time>
      </trkpt>
      <trkpt lat="48.91386" lon="-0.4559">
        <ele>102.02</ele>
        <time>2018-09-28T13:26:09Z</time>
      </trkpt>
      <trkpt lat="48.91384" lon="-0.45566">
        <ele>103.67</ele>
        <time>2018-09-28T13:26:25Z</time>
      </trkpt>
      <trkpt lat="48.91381" lon="-0.45542">
        <ele>104.93</ele>
        <time>2018-09-28T13:26:41Z</time>
      </trkpt>
      <trkpt lat="48.91375" lon="-0.45515">
        <ele>108.1</ele>
        <time>2018-09-28T13:26:59Z</time>
      </trkpt>
      <trkpt lat="48.91374" lon="-0.45513">
        <ele>108.22</ele>
        <time>2018-09-28T13:27:00Z</time>
      </trkpt>
      <trkpt lat="48.91368" lon="-0.4549">
        <ele>109.28</ele>
        <time>2018-09-28T13:27:16Z</time>
      </trkpt>
      <trkpt lat="48.91363" lon="-0.45471">
        <ele>111.67</ele>
        <time>2018-09-28T13:27:30Z</time>
      </trkpt>
      <trkpt lat="48.91362" lon="-0.45468">
        <ele>111.63</ele>
        <time>2018-09-28T13:27:32Z</time>
      </trkpt>
      <trkpt lat="48.91353" lon="-0.45445">
        <ele>113.81</ele>
        <time>2018-09-28T13:27:50Z</time>
      </trkpt>
      <trkpt lat="48.91347" lon="-0.45426">
        <ele>116.1</ele>
        <time>2018-09-28T13:28:06Z</time>
      </trkpt>
      <trkpt lat="48.91344" lon="-0.45422">
        <ele>115.4</ele>
        <time>2018-09-28T13:28:29Z</time>
      </trkpt>
      <trkpt lat="48.91347" lon="-0.45427">
        <ele>115.68</ele>
        <time>2018-09-28T13:28:47Z</time>
      </trkpt>
      <trkpt lat="48.91347" lon="-0.45426">
        <ele>116.36</ele>
        <time>2018-09-28T13:29:13Z</time>
      </trkpt>
      <trkpt lat="48.91348" lon="-0.45428">
        <ele>116.13</ele>
        <time>2018-09-28T13:29:41Z</time>
      </trkpt>
      <trkpt lat="48.91346" lon="-0.45427">
        <ele>116.5</ele>
        <time>2018-09-28T13:29:59Z</time>
      </trkpt>
      <trkpt lat="48.91346" lon="-0.45425">
        <ele>116.72</ele>
        <time>2018-09-28T13:30:27Z</time>
      </trkpt>
      <trkpt lat="48.91345" lon="-0.45424">
        <ele>116.96</ele>
        <time>2018-09-28T13:30:58Z</time>
      </trkpt>
      <trkpt lat="48.91345" lon="-0.45425">
        <ele>116.85</ele>
        <time>2018-09-28T13:31:29Z</time>
      </trkpt>
      <trkpt lat="48.91347" lon="-0.45427">
        <ele>116.7</ele>
        <time>2018-09-28T13:31:57Z</time>
      </trkpt>
      <trkpt lat="48.91348" lon="-0.45427">
        <ele>116.97</ele>
        <time>2018-09-28T13:32:33Z</time>
      </trkpt>
      <trkpt lat="48.91348" lon="-0.45428">
        <ele>117.24</ele>
        <time>2018-09-28T13:32:56Z</time>
      </trkpt>
      <trkpt lat="48.91348" lon="-0.45427">
        <ele>117.63</ele>
        <time>2018-09-28T13:33:30Z</time>
      </trkpt>
      <trkpt lat="48.91348" lon="-0.45429">
        <ele>117.55</ele>
        <time>2018-09-28T13:34:04Z</time>
      </trkpt>
      <trkpt lat="48.91348" lon="-0.45428">
        <ele>116.65</ele>
        <time>2018-09-28T13:34:32Z</time>
      </trkpt>
      <trkpt lat="48.91347" lon="-0.45425">
        <ele>116.71</ele>
        <time>2018-09-28T13:34:53Z</time>
      </trkpt>
      <trkpt lat="48.91346" lon="-0.45423">
        <ele>117.43</ele>
        <time>2018-09-28T13:35:16Z</time>
      </trkpt>
      <trkpt lat="48.91343" lon="-0.45412">
        <ele>118.59</ele>
        <time>2018-09-28T13:35:30Z</time>
      </trkpt>
      <trkpt lat="48.91342" lon="-0.4541">
        <ele>119.15</ele>
        <time>2018-09-28T13:35:32Z</time>
      </trkpt>
      <trkpt lat="48.91335" lon="-0.4539">
        <ele>120.53</ele>
        <time>2018-09-28T13:35:46Z</time>
      </trkpt>
      <trkpt lat="48.91324" lon="-0.45366">
        <ele>122.67</ele>
        <time>2018-09-28T13:36:02Z</time>
      </trkpt>
      <trkpt lat="48.91314" lon="-0.45345">
        <ele>123.64</ele>
        <time>2018-09-28T13:36:17Z</time>
      </trkpt>
      <trkpt lat="48.91299" lon="-0.45318">
        <ele>125.22</ele>
        <time>2018-09-28T13:36:37Z</time>
      </trkpt>
      <trkpt lat="48.91283" lon="-0.45285">
        <ele>127.29</ele>
        <time>2018-09-28T13:37:00Z</time>
      </trkpt>
      <trkpt lat="48.91271" lon="-0.45246">
        <ele>128.77</ele>
        <time>2018-09-28T13:37:25Z</time>
      </trkpt>
      <trkpt lat="48.91265" lon="-0.4523">
        <ele>130.49</ele>
        <time>2018-09-28T13:37:39Z</time>
      </trkpt>
      <trkpt lat="48.91265" lon="-0.45228">
        <ele>129.99</ele>
        <time>2018-09-28T13:37:40Z</time>
      </trkpt>
      <trkpt lat="48.91263" lon="-0.45223">
        <ele>130.83</ele>
        <time>2018-09-28T13:37:44Z</time>
      </trkpt>
      <trkpt lat="48.91261" lon="-0.45216">
        <ele>131.62</ele>
        <time>2018-09-28T13:37:49Z</time>
      </trkpt>
      <trkpt lat="48.9126" lon="-0.45211">
        <ele>131.71</ele>
        <time>2018-09-28T13:37:53Z</time>
      </trkpt>
      <trkpt lat="48.91257" lon="-0.45202">
        <ele>132.46</ele>
        <time>2018-09-28T13:37:59Z</time>
      </trkpt>
      <trkpt lat="48.91249" lon="-0.45165">
        <ele>134.94</ele>
        <time>2018-09-28T13:38:20Z</time>
      </trkpt>
      <trkpt lat="48.91246" lon="-0.45149">
        <ele>135.31</ele>
        <time>2018-09-28T13:38:30Z</time>
      </trkpt>
      <trkpt lat="48.91245" lon="-0.4514">
        <ele>136.86</ele>
        <time>2018-09-28T13:38:36Z</time>
      </trkpt>
      <trkpt lat="48.91245" lon="-0.45136">
        <ele>136.04</ele>
        <time>2018-09-28T13:38:39Z</time>
      </trkpt>
      <trkpt lat="48.91245" lon="-0.45108">
        <ele>138.81</ele>
        <time>2018-09-28T13:38:57Z</time>
      </trkpt>
      <trkpt lat="48.91245" lon="-0.45104">
        <ele>138.9</ele>
        <time>2018-09-28T13:39:00Z</time>
      </trkpt>
      <trkpt lat="48.91255" lon="-0.45078">
        <ele>140.4</ele>
        <time>2018-09-28T13:39:16Z</time>
      </trkpt>
      <trkpt lat="48.91264" lon="-0.45051">
        <ele>141.29</ele>
        <time>2018-09-28T13:39:32Z</time>
      </trkpt>
      <trkpt lat="48.91277" lon="-0.45027">
        <ele>144.47</ele>
        <time>2018-09-28T13:39:49Z</time>
      </trkpt>
      <trkpt lat="48.91298" lon="-0.45">
        <ele>146.64</ele>
        <time>2018-09-28T13:40:14Z</time>
      </trkpt>
      <trkpt lat="48.91313" lon="-0.4499">
        <ele>149.69</ele>
        <time>2018-09-28T13:40:32Z</time>
      </trkpt>
      <trkpt lat="48.91328" lon="-0.44982">
        <ele>151.56</ele>
        <time>2018-09-28T13:40:49Z</time>
      </trkpt>
      <trkpt lat="48.91345" lon="-0.44978">
        <ele>153.99</ele>
        <time>2018-09-28T13:41:09Z</time>
      </trkpt>
      <trkpt lat="48.91363" lon="-0.44961">
        <ele>156.37</ele>
        <time>2018-09-28T13:41:28Z</time>
      </trkpt>
      <trkpt lat="48.91376" lon="-0.44948">
        <ele>159.65</ele>
        <time>2018-09-28T13:41:43Z</time>
      </trkpt>
      <trkpt lat="48.91388" lon="-0.4493">
        <ele>161.59</ele>
        <time>2018-09-28T13:41:59Z</time>
      </trkpt>
      <trkpt lat="48.91397" lon="-0.4491">
        <ele>164.68</ele>
        <time>2018-09-28T13:42:16Z</time>
      </trkpt>
      <trkpt lat="48.91403" lon="-0.44891">
        <ele>166.99</ele>
        <time>2018-09-28T13:42:32Z</time>
      </trkpt>
      <trkpt lat="48.9141" lon="-0.44866">
        <ele>169.91</ele>
        <time>2018-09-28T13:42:51Z</time>
      </trkpt>
      <trkpt lat="48.91415" lon="-0.44843">
        <ele>172.94</ele>
        <time>2018-09-28T13:43:07Z</time>
      </trkpt>
      <trkpt lat="48.91417" lon="-0.44826">
        <ele>173.66</ele>
        <time>2018-09-28T13:43:24Z</time>
      </trkpt>
      <trkpt lat="48.91415" lon="-0.44826">
        <ele>173.4</ele>
        <time>2018-09-28T13:43:51Z</time>
      </trkpt>
      <trkpt lat="48.91414" lon="-0.44826">
        <ele>173.96</ele>
        <time>2018-09-28T13:44:24Z</time>
      </trkpt>
      <trkpt lat="48.91414" lon="-0.44828">
        <ele>173.22</ele>
        <time>2018-09-28T13:44:55Z</time>
      </trkpt>
      <trkpt lat="48.91415" lon="-0.44828">
        <ele>173.83</ele>
        <time>2018-09-28T13:45:23Z</time>
      </trkpt>
      <trkpt lat="48.91414" lon="-0.44826">
        <ele>174.54</ele>
        <time>2018-09-28T13:45:57Z</time>
      </trkpt>
      <trkpt lat="48.91415" lon="-0.44823">
        <ele>174.49</ele>
        <time>2018-09-28T13:46:15Z</time>
      </trkpt>
      <trkpt lat="48.91421" lon="-0.44809">
        <ele>176.57</ele>
        <time>2018-09-28T13:46:31Z</time>
      </trkpt>
      <trkpt lat="48.91426" lon="-0.4479">
        <ele>178.56</ele>
        <time>2018-09-28T13:46:45Z</time>
      </trkpt>
      <trkpt lat="48.91428" lon="-0.44785">
        <ele>179.84</ele>
        <time>2018-09-28T13:46:48Z</time>
      </trkpt>
      <trkpt lat="48.91435" lon="-0.44765">
        <ele>182.2</ele>
        <time>2018-09-28T13:47:07Z</time>
      </trkpt>
      <trkpt lat="48.91442" lon="-0.44742">
        <ele>184.42</ele>
        <time>2018-09-28T13:47:25Z</time>
      </trkpt>
      <trkpt lat="48.91451" lon="-0.4471">
        <ele>186.76</ele>
        <time>2018-09-28T13:47:49Z</time>
      </trkpt>
      <trkpt lat="48.91456" lon="-0.44681">
        <ele>188.91</ele>
        <time>2018-09-28T13:48:11Z</time>
      </trkpt>
      <trkpt lat="48.9146" lon="-0.44653">
        <ele>191.85</ele>
        <time>2018-09-28T13:48:30Z</time>
      </trkpt>
      <trkpt lat="48.91463" lon="-0.44641">
        <ele>192.53</ele>
        <time>2018-09-28T13:48:39Z</time>
      </trkpt>
      <trkpt lat="48.91465" lon="-0.44627">
        <ele>193.73</ele>
        <time>2018-09-28T13:48:49Z</time>
      </trkpt>
      <trkpt lat="48.91472" lon="-0.44604">
        <ele>196.47</ele>
        <time>2018-09-28T13:49:09Z</time>
      </trkpt>
      <trkpt lat="48.91473" lon="-0.446">
        <ele>196.41</ele>
        <time>2018-09-28T13:49:12Z</time>
      </trkpt>
      <trkpt lat="48.91469" lon="-0.44565">
        <ele>198.61</ele>
        <time>2018-09-28T13:49:29Z</time>
      </trkpt>
      <trkpt lat="48.91473" lon="-0.4454">
        <ele>201</ele>
        <time>2018-09-28T13:49:47Z</time>
      </trkpt>
      <trkpt lat="48.91475" lon="-0.44504">
        <ele>203.97</ele>
        <time>2018-09-28T13:50:07Z</time>
      </trkpt>
      <trkpt lat="48.91475" lon="-0.4448">
        <ele>206.07</ele>
        <time>2018-09-28T13:50:24Z</time>
      </trkpt>
      <trkpt lat="48.91479" lon="-0.44454">
        <ele>207.61</ele>
        <time>2018-09-28T13:50:41Z</time>
      </trkpt>
      <trkpt lat="48.91484" lon="-0.44423">
        <ele>210.62</ele>
        <time>2018-09-28T13:50:59Z</time>
      </trkpt>
      <trkpt lat="48.91492" lon="-0.44392">
        <ele>213.23</ele>
        <time>2018-09-28T13:51:22Z</time>
      </trkpt>
      <trkpt lat="48.91504" lon="-0.44358">
        <ele>215.54</ele>
        <time>2018-09-28T13:51:43Z</time>
      </trkpt>
      <trkpt lat="48.91517" lon="-0.44327">
        <ele>217.13</ele>
        <time>2018-09-28T13:52:05Z</time>
      </trkpt>
      <trkpt lat="48.9153" lon="-0.44296">
        <ele>219.38</ele>
        <time>2018-09-28T13:52:28Z</time>
      </trkpt>
      <trkpt lat="48.91539" lon="-0.44276">
        <ele>220.28</ele>
        <time>2018-09-28T13:52:43Z</time>
      </trkpt>
      <trkpt lat="48.91543" lon="-0.44269">
        <ele>219.93</ele>
        <time>2018-09-28T13:52:49Z</time>
      </trkpt>
      <trkpt lat="48.91545" lon="-0.44265">
        <ele>220.59</ele>
        <time>2018-09-28T13:52:53Z</time>
      </trkpt>
      <trkpt lat="48.91549" lon="-0.44258">
        <ele>220.76</ele>
        <time>2018-09-28T13:53:07Z</time>
      </trkpt>
      <trkpt lat="48.91554" lon="-0.4425">
        <ele>221.01</ele>
        <time>2018-09-28T13:53:15Z</time>
      </trkpt>
      <trkpt lat="48.91563" lon="-0.4423">
        <ele>222.03</ele>
        <time>2018-09-28T13:53:31Z</time>
      </trkpt>
      <trkpt lat="48.91573" lon="-0.44209">
        <ele>222.39</ele>
        <time>2018-09-28T13:53:47Z</time>
      </trkpt>
      <trkpt lat="48.91582" lon="-0.44194">
        <ele>222.71</ele>
        <time>2018-09-28T13:54:00Z</time>
      </trkpt>
      <trkpt lat="48.91591" lon="-0.44182">
        <ele>222.69</ele>
        <time>2018-09-28T13:54:11Z</time>
      </trkpt>
      <trkpt lat="48.91605" lon="-0.44164">
        <ele>223.12</ele>
        <time>2018-09-28T13:54:27Z</time>
      </trkpt>
      <trkpt lat="48.91619" lon="-0.4415">
        <ele>222.37</ele>
        <time>2018-09-28T13:54:43Z</time>
      </trkpt>
      <trkpt lat="48.91633" lon="-0.44137">
        <ele>223.8</ele>
        <time>2018-09-28T13:54:57Z</time>
      </trkpt>
      <trkpt lat="48.91646" lon="-0.44127">
        <ele>223.89</ele>
        <time>2018-09-28T13:55:10Z</time>
      </trkpt>
      <trkpt lat="48.91659" lon="-0.44112">
        <ele>224.27</ele>
        <time>2018-09-28T13:55:25Z</time>
      </trkpt>
      <trkpt lat="48.91664" lon="-0.44103">
        <ele>224.68</ele>
        <time>2018-09-28T13:55:32Z</time>
      </trkpt>
      <trkpt lat="48.91675" lon="-0.44085">
        <ele>224.32</ele>
        <time>2018-09-28T13:55:48Z</time>
      </trkpt>
      <trkpt lat="48.91676" lon="-0.44074">
        <ele>223.37</ele>
        <time>2018-09-28T13:56:03Z</time>
      </trkpt>
      <trkpt lat="48.91677" lon="-0.44071">
        <ele>222.67</ele>
        <time>2018-09-28T13:56:06Z</time>
      </trkpt>
      <trkpt lat="48.91677" lon="-0.44063">
        <ele>222.5</ele>
        <time>2018-09-28T13:56:20Z</time>
      </trkpt>
      <trkpt lat="48.91677" lon="-0.44063">
        <ele>222.36</ele>
        <time>2018-09-28T13:56:45Z</time>
      </trkpt>
      <trkpt lat="48.91676" lon="-0.44063">
        <ele>222.37</ele>
        <time>2018-09-28T13:57:14Z</time>
      </trkpt>
      <trkpt lat="48.91677" lon="-0.44064">
        <ele>222.71</ele>
        <time>2018-09-28T13:57:41Z</time>
      </trkpt>
      <trkpt lat="48.91678" lon="-0.44062">
        <ele>222.84</ele>
        <time>2018-09-28T13:58:11Z</time>
      </trkpt>
      <trkpt lat="48.91676" lon="-0.44064">
        <ele>223.22</ele>
        <time>2018-09-28T13:58:40Z</time>
      </trkpt>
      <trkpt lat="48.91674" lon="-0.44067">
        <ele>223.93</ele>
        <time>2018-09-28T13:58:57Z</time>
      </trkpt>
      <trkpt lat="48.91669" lon="-0.44061">
        <ele>223.29</ele>
        <time>2018-09-28T13:59:27Z</time>
      </trkpt>
      <trkpt lat="48.91664" lon="-0.44049">
        <ele>221.62</ele>
        <time>2018-09-28T13:59:42Z</time>
      </trkpt>
      <trkpt lat="48.91654" lon="-0.44033">
        <ele>218.51</ele>
        <time>2018-09-28T13:59:59Z</time>
      </trkpt>
      <trkpt lat="48.91636" lon="-0.44022">
        <ele>217.32</ele>
        <time>2018-09-28T14:00:20Z</time>
      </trkpt>
      <trkpt lat="48.91619" lon="-0.44013">
        <ele>214.56</ele>
        <time>2018-09-28T14:00:36Z</time>
      </trkpt>
      <trkpt lat="48.91616" lon="-0.44011">
        <ele>214.64</ele>
        <time>2018-09-28T14:00:39Z</time>
      </trkpt>
      <trkpt lat="48.91612" lon="-0.44009">
        <ele>214.4</ele>
        <time>2018-09-28T14:00:42Z</time>
      </trkpt>
      <trkpt lat="48.91599" lon="-0.43997">
        <ele>212.33</ele>
        <time>2018-09-28T14:00:57Z</time>
      </trkpt>
      <trkpt lat="48.91597" lon="-0.43994">
        <ele>211.71</ele>
        <time>2018-09-28T14:00:59Z</time>
      </trkpt>
      <trkpt lat="48.9159" lon="-0.43982">
        <ele>210.52</ele>
        <time>2018-09-28T14:01:11Z</time>
      </trkpt>
      <trkpt lat="48.91589" lon="-0.43977">
        <ele>210.35</ele>
        <time>2018-09-28T14:01:23Z</time>
      </trkpt>
      <trkpt lat="48.91584" lon="-0.43968">
        <ele>209.18</ele>
        <time>2018-09-28T14:01:36Z</time>
      </trkpt>
      <trkpt lat="48.91582" lon="-0.43961">
        <ele>208.5</ele>
        <time>2018-09-28T14:01:41Z</time>
      </trkpt>
      <trkpt lat="48.91574" lon="-0.4393">
        <ele>205.84</ele>
        <time>2018-09-28T14:02:01Z</time>
      </trkpt>
      <trkpt lat="48.91571" lon="-0.43927">
        <ele>205.61</ele>
        <time>2018-09-28T14:02:06Z</time>
      </trkpt>
      <trkpt lat="48.91556" lon="-0.43919">
        <ele>205.13</ele>
        <time>2018-09-28T14:02:23Z</time>
      </trkpt>
      <trkpt lat="48.91548" lon="-0.43925">
        <ele>204.85</ele>
        <time>2018-09-28T14:02:37Z</time>
      </trkpt>
      <trkpt lat="48.91534" lon="-0.43933">
        <ele>205.87</ele>
        <time>2018-09-28T14:02:58Z</time>
      </trkpt>
      <trkpt lat="48.9152" lon="-0.4394">
        <ele>209.25</ele>
        <time>2018-09-28T14:03:12Z</time>
      </trkpt>
      <trkpt lat="48.91503" lon="-0.43954">
        <ele>211.73</ele>
        <time>2018-09-28T14:03:31Z</time>
      </trkpt>
      <trkpt lat="48.91488" lon="-0.43973">
        <ele>213.6</ele>
        <time>2018-09-28T14:03:49Z</time>
      </trkpt>
      <trkpt lat="48.91475" lon="-0.43985">
        <ele>213.95</ele>
        <time>2018-09-28T14:04:03Z</time>
      </trkpt>
      <trkpt lat="48.91473" lon="-0.43988">
        <ele>213.91</ele>
        <time>2018-09-28T14:04:05Z</time>
      </trkpt>
      <trkpt lat="48.91454" lon="-0.44008">
        <ele>215.41</ele>
        <time>2018-09-28T14:04:25Z</time>
      </trkpt>
      <trkpt lat="48.91438" lon="-0.44028">
        <ele>216.09</ele>
        <time>2018-09-28T14:04:42Z</time>
      </trkpt>
      <trkpt lat="48.91426" lon="-0.44045">
        <ele>216.22</ele>
        <time>2018-09-28T14:04:58Z</time>
      </trkpt>
      <trkpt lat="48.91416" lon="-0.44055">
        <ele>214.73</ele>
        <time>2018-09-28T14:05:14Z</time>
      </trkpt>
      <trkpt lat="48.91413" lon="-0.44058">
        <ele>213.43</ele>
        <time>2018-09-28T14:05:19Z</time>
      </trkpt>
      <trkpt lat="48.91408" lon="-0.44061">
        <ele>213.6</ele>
        <time>2018-09-28T14:05:24Z</time>
      </trkpt>
      <trkpt lat="48.91387" lon="-0.44076">
        <ele>210.82</ele>
        <time>2018-09-28T14:05:41Z</time>
      </trkpt>
      <trkpt lat="48.91379" lon="-0.44084">
        <ele>210</ele>
        <time>2018-09-28T14:05:50Z</time>
      </trkpt>
      <trkpt lat="48.91367" lon="-0.44104">
        <ele>207.51</ele>
        <time>2018-09-28T14:06:06Z</time>
      </trkpt>
      <trkpt lat="48.91353" lon="-0.44117">
        <ele>204.98</ele>
        <time>2018-09-28T14:06:20Z</time>
      </trkpt>
      <trkpt lat="48.9134" lon="-0.44122">
        <ele>201.97</ele>
        <time>2018-09-28T14:06:35Z</time>
      </trkpt>
      <trkpt lat="48.91333" lon="-0.44124">
        <ele>200.82</ele>
        <time>2018-09-28T14:06:51Z</time>
      </trkpt>
      <trkpt lat="48.91329" lon="-0.44127">
        <ele>200.54</ele>
        <time>2018-09-28T14:07:17Z</time>
      </trkpt>
      <trkpt lat="48.91313" lon="-0.44131">
        <ele>199.11</ele>
        <time>2018-09-28T14:07:36Z</time>
      </trkpt>
      <trkpt lat="48.91309" lon="-0.44131">
        <ele>199.13</ele>
        <time>2018-09-28T14:07:40Z</time>
      </trkpt>
      <trkpt lat="48.91299" lon="-0.44135">
        <ele>197.69</ele>
        <time>2018-09-28T14:07:52Z</time>
      </trkpt>
      <trkpt lat="48.91281" lon="-0.44143">
        <ele>194.9</ele>
        <time>2018-09-28T14:08:07Z</time>
      </trkpt>
      <trkpt lat="48.91268" lon="-0.44148">
        <ele>193.79</ele>
        <time>2018-09-28T14:08:23Z</time>
      </trkpt>
      <trkpt lat="48.91263" lon="-0.44152">
        <ele>193.74</ele>
        <time>2018-09-28T14:08:28Z</time>
      </trkpt>
      <trkpt lat="48.91241" lon="-0.44161">
        <ele>192.75</ele>
        <time>2018-09-28T14:08:48Z</time>
      </trkpt>
      <trkpt lat="48.9123" lon="-0.44166">
        <ele>190.32</ele>
        <time>2018-09-28T14:09:02Z</time>
      </trkpt>
      <trkpt lat="48.91217" lon="-0.44169">
        <ele>189.01</ele>
        <time>2018-09-28T14:09:23Z</time>
      </trkpt>
      <trkpt lat="48.91201" lon="-0.44173">
        <ele>185.95</ele>
        <time>2018-09-28T14:09:41Z</time>
      </trkpt>
      <trkpt lat="48.91184" lon="-0.44176">
        <ele>182.6</ele>
        <time>2018-09-28T14:09:57Z</time>
      </trkpt>
      <trkpt lat="48.91183" lon="-0.44176">
        <ele>182.46</ele>
        <time>2018-09-28T14:09:58Z</time>
      </trkpt>
      <trkpt lat="48.91166" lon="-0.44179">
        <ele>179.28</ele>
        <time>2018-09-28T14:10:15Z</time>
      </trkpt>
      <trkpt lat="48.91151" lon="-0.44178">
        <ele>176</ele>
        <time>2018-09-28T14:10:30Z</time>
      </trkpt>
      <trkpt lat="48.91149" lon="-0.44177">
        <ele>175.8</ele>
        <time>2018-09-28T14:10:31Z</time>
      </trkpt>
      <trkpt lat="48.91134" lon="-0.44171">
        <ele>173.09</ele>
        <time>2018-09-28T14:10:46Z</time>
      </trkpt>
      <trkpt lat="48.91118" lon="-0.44162">
        <ele>170.2</ele>
        <time>2018-09-28T14:11:03Z</time>
      </trkpt>
      <trkpt lat="48.91097" lon="-0.44159">
        <ele>167</ele>
        <time>2018-09-28T14:11:21Z</time>
      </trkpt>
      <trkpt lat="48.91092" lon="-0.44158">
        <ele>165.93</ele>
        <time>2018-09-28T14:11:25Z</time>
      </trkpt>
      <trkpt lat="48.91072" lon="-0.44157">
        <ele>164.55</ele>
        <time>2018-09-28T14:11:43Z</time>
      </trkpt>
      <trkpt lat="48.91054" lon="-0.4416">
        <ele>161.99</ele>
        <time>2018-09-28T14:11:58Z</time>
      </trkpt>
      <trkpt lat="48.91036" lon="-0.44157">
        <ele>161.77</ele>
        <time>2018-09-28T14:12:15Z</time>
      </trkpt>
      <trkpt lat="48.91023" lon="-0.44153">
        <ele>159.32</ele>
        <time>2018-09-28T14:12:30Z</time>
      </trkpt>
      <trkpt lat="48.91008" lon="-0.44144">
        <ele>160.09</ele>
        <time>2018-09-28T14:12:44Z</time>
      </trkpt>
      <trkpt lat="48.90993" lon="-0.44142">
        <ele>159.39</ele>
        <time>2018-09-28T14:12:58Z</time>
      </trkpt>
      <trkpt lat="48.9098" lon="-0.44141">
        <ele>159.87</ele>
        <time>2018-09-28T14:13:17Z</time>
      </trkpt>
      <trkpt lat="48.90976" lon="-0.44142">
        <ele>160.13</ele>
        <time>2018-09-28T14:13:41Z</time>
      </trkpt>
      <trkpt lat="48.90975" lon="-0.4414">
        <ele>161.08</ele>
        <time>2018-09-28T14:14:04Z</time>
      </trkpt>
      <trkpt lat="48.90977" lon="-0.44138">
        <ele>160.79</ele>
        <time>2018-09-28T14:14:26Z</time>
      </trkpt>
      <trkpt lat="48.90977" lon="-0.4414">
        <ele>161.08</ele>
        <time>2018-09-28T14:14:46Z</time>
      </trkpt>
      <trkpt lat="48.90975" lon="-0.4414">
        <ele>161.35</ele>
        <time>2018-09-28T14:15:10Z</time>
      </trkpt>
      <trkpt lat="48.90977" lon="-0.44142">
        <ele>160.05</ele>
        <time>2018-09-28T14:15:34Z</time>
      </trkpt>
      <trkpt lat="48.90975" lon="-0.44144">
        <ele>161.6</ele>
        <time>2018-09-28T14:16:02Z</time>
      </trkpt>
      <trkpt lat="48.90977" lon="-0.44141">
        <ele>161.62</ele>
        <time>2018-09-28T14:16:30Z</time>
      </trkpt>
      <trkpt lat="48.90975" lon="-0.44138">
        <ele>162.08</ele>
        <time>2018-09-28T14:16:56Z</time>
      </trkpt>
      <trkpt lat="48.90976" lon="-0.44137">
        <ele>161.79</ele>
        <time>2018-09-28T14:17:21Z</time>
      </trkpt>
      <trkpt lat="48.90976" lon="-0.4414">
        <ele>162.12</ele>
        <time>2018-09-28T14:17:43Z</time>
      </trkpt>
      <trkpt lat="48.90976" lon="-0.44142">
        <ele>162.29</ele>
        <time>2018-09-28T14:18:11Z</time>
      </trkpt>
      <trkpt lat="48.90976" lon="-0.44138">
        <ele>163.14</ele>
        <time>2018-09-28T14:18:40Z</time>
      </trkpt>
      <trkpt lat="48.90976" lon="-0.44137">
        <ele>162.49</ele>
        <time>2018-09-28T14:19:03Z</time>
      </trkpt>
      <trkpt lat="48.90974" lon="-0.44136">
        <ele>162.79</ele>
        <time>2018-09-28T14:19:19Z</time>
      </trkpt>
      <trkpt lat="48.90978" lon="-0.44134">
        <ele>163.18</ele>
        <time>2018-09-28T14:19:49Z</time>
      </trkpt>
      <trkpt lat="48.90979" lon="-0.44136">
        <ele>163.13</ele>
        <time>2018-09-28T14:20:14Z</time>
      </trkpt>
      <trkpt lat="48.9098" lon="-0.44149">
        <ele>163.44</ele>
        <time>2018-09-28T14:20:35Z</time>
      </trkpt>
      <trkpt lat="48.9098" lon="-0.44161">
        <ele>164.79</ele>
        <time>2018-09-28T14:20:42Z</time>
      </trkpt>
      <trkpt lat="48.90981" lon="-0.44165">
        <ele>164.67</ele>
        <time>2018-09-28T14:20:45Z</time>
      </trkpt>
      <trkpt lat="48.90982" lon="-0.44193">
        <ele>165.92</ele>
        <time>2018-09-28T14:21:02Z</time>
      </trkpt>
      <trkpt lat="48.90984" lon="-0.44223">
        <ele>167.18</ele>
        <time>2018-09-28T14:21:19Z</time>
      </trkpt>
      <trkpt lat="48.90985" lon="-0.44255">
        <ele>167.32</ele>
        <time>2018-09-28T14:21:37Z</time>
      </trkpt>
      <trkpt lat="48.90987" lon="-0.44291">
        <ele>166.42</ele>
        <time>2018-09-28T14:21:57Z</time>
      </trkpt>
      <trkpt lat="48.90989" lon="-0.44318">
        <ele>166.05</ele>
        <time>2018-09-28T14:22:16Z</time>
      </trkpt>
      <trkpt lat="48.90991" lon="-0.44325">
        <ele>167.6</ele>
        <time>2018-09-28T14:22:42Z</time>
      </trkpt>
      <trkpt lat="48.90992" lon="-0.44329">
        <ele>167.32</ele>
        <time>2018-09-28T14:22:45Z</time>
      </trkpt>
      <trkpt lat="48.90992" lon="-0.44332">
        <ele>166.97</ele>
        <time>2018-09-28T14:22:47Z</time>
      </trkpt>
      <trkpt lat="48.90998" lon="-0.4436">
        <ele>166.6</ele>
        <time>2018-09-28T14:23:03Z</time>
      </trkpt>
      <trkpt lat="48.91" lon="-0.44366">
        <ele>165.85</ele>
        <time>2018-09-28T14:23:07Z</time>
      </trkpt>
      <trkpt lat="48.91002" lon="-0.44385">
        <ele>166.18</ele>
        <time>2018-09-28T14:23:17Z</time>
      </trkpt>
      <trkpt lat="48.91005" lon="-0.44409">
        <ele>165.48</ele>
        <time>2018-09-28T14:23:30Z</time>
      </trkpt>
      <trkpt lat="48.91008" lon="-0.44418">
        <ele>165.13</ele>
        <time>2018-09-28T14:23:35Z</time>
      </trkpt>
      <trkpt lat="48.9101" lon="-0.44427">
        <ele>164.41</ele>
        <time>2018-09-28T14:23:40Z</time>
      </trkpt>
      <trkpt lat="48.91013" lon="-0.44441">
        <ele>162.7</ele>
        <time>2018-09-28T14:23:47Z</time>
      </trkpt>
      <trkpt lat="48.91015" lon="-0.44474">
        <ele>163.23</ele>
        <time>2018-09-28T14:24:04Z</time>
      </trkpt>
      <trkpt lat="48.91003" lon="-0.44488">
        <ele>164.46</ele>
        <time>2018-09-28T14:24:19Z</time>
      </trkpt>
      <trkpt lat="48.90995" lon="-0.44492">
        <ele>165.05</ele>
        <time>2018-09-28T14:24:31Z</time>
      </trkpt>
      <trkpt lat="48.90991" lon="-0.44493">
        <ele>165.2</ele>
        <time>2018-09-28T14:24:38Z</time>
      </trkpt>
      <trkpt lat="48.90977" lon="-0.44499">
        <ele>165.36</ele>
        <time>2018-09-28T14:24:52Z</time>
      </trkpt>
      <trkpt lat="48.9096" lon="-0.44507">
        <ele>164.12</ele>
        <time>2018-09-28T14:25:07Z</time>
      </trkpt>
      <trkpt lat="48.90955" lon="-0.44506">
        <ele>163.96</ele>
        <time>2018-09-28T14:25:12Z</time>
      </trkpt>
      <trkpt lat="48.90951" lon="-0.44504">
        <ele>165.38</ele>
        <time>2018-09-28T14:25:16Z</time>
      </trkpt>
      <trkpt lat="48.90951" lon="-0.44494">
        <ele>168.57</ele>
        <time>2018-09-28T14:25:34Z</time>
      </trkpt>
      <trkpt lat="48.90949" lon="-0.4448">
        <ele>171.2</ele>
        <time>2018-09-28T14:25:55Z</time>
      </trkpt>
      <trkpt lat="48.90946" lon="-0.44472">
        <ele>173.14</ele>
        <time>2018-09-28T14:26:05Z</time>
      </trkpt>
      <trkpt lat="48.90944" lon="-0.4446">
        <ele>173.58</ele>
        <time>2018-09-28T14:26:21Z</time>
      </trkpt>
      <trkpt lat="48.90943" lon="-0.44442">
        <ele>176.94</ele>
        <time>2018-09-28T14:26:41Z</time>
      </trkpt>
      <trkpt lat="48.90943" lon="-0.44436">
        <ele>177.7</ele>
        <time>2018-09-28T14:26:50Z</time>
      </trkpt>
      <trkpt lat="48.90938" lon="-0.44406">
        <ele>180.26</ele>
        <time>2018-09-28T14:27:11Z</time>
      </trkpt>
      <trkpt lat="48.90933" lon="-0.44383">
        <ele>182.59</ele>
        <time>2018-09-28T14:27:29Z</time>
      </trkpt>
      <trkpt lat="48.90931" lon="-0.44364">
        <ele>183.59</ele>
        <time>2018-09-28T14:27:45Z</time>
      </trkpt>
      <trkpt lat="48.9093" lon="-0.44343">
        <ele>185.17</ele>
        <time>2018-09-28T14:28:00Z</time>
      </trkpt>
      <trkpt lat="48.90928" lon="-0.44321">
        <ele>185.65</ele>
        <time>2018-09-28T14:28:18Z</time>
      </trkpt>
      <trkpt lat="48.9092" lon="-0.44298">
        <ele>187.43</ele>
        <time>2018-09-28T14:28:39Z</time>
      </trkpt>
      <trkpt lat="48.9091" lon="-0.44282">
        <ele>189.46</ele>
        <time>2018-09-28T14:28:57Z</time>
      </trkpt>
      <trkpt lat="48.90901" lon="-0.44272">
        <ele>191.24</ele>
        <time>2018-09-28T14:29:16Z</time>
      </trkpt>
      <trkpt lat="48.90885" lon="-0.44253">
        <ele>193.76</ele>
        <time>2018-09-28T14:29:35Z</time>
      </trkpt>
      <trkpt lat="48.9087" lon="-0.44237">
        <ele>195.68</ele>
        <time>2018-09-28T14:29:57Z</time>
      </trkpt>
      <trkpt lat="48.90871" lon="-0.44225">
        <ele>197.05</ele>
        <time>2018-09-28T14:30:19Z</time>
      </trkpt>
      <trkpt lat="48.90867" lon="-0.44208">
        <ele>198.04</ele>
        <time>2018-09-28T14:30:40Z</time>
      </trkpt>
      <trkpt lat="48.90864" lon="-0.44198">
        <ele>198.84</ele>
        <time>2018-09-28T14:30:48Z</time>
      </trkpt>
      <trkpt lat="48.90861" lon="-0.44193">
        <ele>198.81</ele>
        <time>2018-09-28T14:30:52Z</time>
      </trkpt>
      <trkpt lat="48.90854" lon="-0.44188">
        <ele>198.54</ele>
        <time>2018-09-28T14:31:18Z</time>
      </trkpt>
      <trkpt lat="48.90848" lon="-0.44178">
        <ele>199.11</ele>
        <time>2018-09-28T14:31:37Z</time>
      </trkpt>
      <trkpt lat="48.90839" lon="-0.44165">
        <ele>196.61</ele>
        <time>2018-09-28T14:31:56Z</time>
      </trkpt>
      <trkpt lat="48.9083" lon="-0.44174">
        <ele>195.58</ele>
        <time>2018-09-28T14:32:18Z</time>
      </trkpt>
      <trkpt lat="48.90819" lon="-0.44181">
        <ele>195.8</ele>
        <time>2018-09-28T14:32:36Z</time>
      </trkpt>
      <trkpt lat="48.90807" lon="-0.44187">
        <ele>195.92</ele>
        <time>2018-09-28T14:32:52Z</time>
      </trkpt>
      <trkpt lat="48.90795" lon="-0.44183">
        <ele>195.13</ele>
        <time>2018-09-28T14:33:11Z</time>
      </trkpt>
      <trkpt lat="48.90792" lon="-0.44183">
        <ele>194.82</ele>
        <time>2018-09-28T14:33:15Z</time>
      </trkpt>
      <trkpt lat="48.90789" lon="-0.44183">
        <ele>193.87</ele>
        <time>2018-09-28T14:33:21Z</time>
      </trkpt>
      <trkpt lat="48.90774" lon="-0.44191">
        <ele>191.77</ele>
        <time>2018-09-28T14:33:42Z</time>
      </trkpt>
      <trkpt lat="48.9076" lon="-0.44203">
        <ele>192.24</ele>
        <time>2018-09-28T14:34:00Z</time>
      </trkpt>
      <trkpt lat="48.9074" lon="-0.44209">
        <ele>194.37</ele>
        <time>2018-09-28T14:34:19Z</time>
      </trkpt>
      <trkpt lat="48.90727" lon="-0.44219">
        <ele>194.67</ele>
        <time>2018-09-28T14:34:36Z</time>
      </trkpt>
      <trkpt lat="48.90717" lon="-0.44233">
        <ele>192.98</ele>
        <time>2018-09-28T14:34:55Z</time>
      </trkpt>
      <trkpt lat="48.90715" lon="-0.44257">
        <ele>192.94</ele>
        <time>2018-09-28T14:35:14Z</time>
      </trkpt>
      <trkpt lat="48.9071" lon="-0.44285">
        <ele>192.8</ele>
        <time>2018-09-28T14:35:30Z</time>
      </trkpt>
      <trkpt lat="48.90708" lon="-0.44307">
        <ele>191.46</ele>
        <time>2018-09-28T14:35:48Z</time>
      </trkpt>
      <trkpt lat="48.90706" lon="-0.44337">
        <ele>190.36</ele>
        <time>2018-09-28T14:36:06Z</time>
      </trkpt>
      <trkpt lat="48.90712" lon="-0.44353">
        <ele>189.77</ele>
        <time>2018-09-28T14:36:25Z</time>
      </trkpt>
      <trkpt lat="48.90714" lon="-0.44357">
        <ele>188.91</ele>
        <time>2018-09-28T14:36:28Z</time>
      </trkpt>
      <trkpt lat="48.90715" lon="-0.4439">
        <ele>189.03</ele>
        <time>2018-09-28T14:36:46Z</time>
      </trkpt>
      <trkpt lat="48.90714" lon="-0.44398">
        <ele>185.76</ele>
        <time>2018-09-28T14:36:55Z</time>
      </trkpt>
      <trkpt lat="48.9072" lon="-0.44414">
        <ele>184.8</ele>
        <time>2018-09-28T14:37:13Z</time>
      </trkpt>
      <trkpt lat="48.90725" lon="-0.44429">
        <ele>184.9</ele>
        <time>2018-09-28T14:37:31Z</time>
      </trkpt>
      <trkpt lat="48.90734" lon="-0.44452">
        <ele>185.92</ele>
        <time>2018-09-28T14:37:50Z</time>
      </trkpt>
      <trkpt lat="48.90746" lon="-0.44476">
        <ele>185.23</ele>
        <time>2018-09-28T14:38:08Z</time>
      </trkpt>
      <trkpt lat="48.90748" lon="-0.4448">
        <ele>185.69</ele>
        <time>2018-09-28T14:38:12Z</time>
      </trkpt>
      <trkpt lat="48.90752" lon="-0.44495">
        <ele>185.33</ele>
        <time>2018-09-28T14:38:26Z</time>
      </trkpt>
      <trkpt lat="48.90757" lon="-0.44526">
        <ele>183.79</ele>
        <time>2018-09-28T14:38:48Z</time>
      </trkpt>
      <trkpt lat="48.90757" lon="-0.4455">
        <ele>184.29</ele>
        <time>2018-09-28T14:39:08Z</time>
      </trkpt>
      <trkpt lat="48.90757" lon="-0.44573">
        <ele>185.31</ele>
        <time>2018-09-28T14:39:23Z</time>
      </trkpt>
      <trkpt lat="48.90756" lon="-0.44599">
        <ele>183.96</ele>
        <time>2018-09-28T14:39:40Z</time>
      </trkpt>
      <trkpt lat="48.90762" lon="-0.44615">
        <ele>184.95</ele>
        <time>2018-09-28T14:39:54Z</time>
      </trkpt>
      <trkpt lat="48.90764" lon="-0.44621">
        <ele>185.31</ele>
        <time>2018-09-28T14:39:59Z</time>
      </trkpt>
      <trkpt lat="48.90774" lon="-0.4463">
        <ele>185.15</ele>
        <time>2018-09-28T14:40:12Z</time>
      </trkpt>
      <trkpt lat="48.90778" lon="-0.44642">
        <ele>185.15</ele>
        <time>2018-09-28T14:40:21Z</time>
      </trkpt>
      <trkpt lat="48.90778" lon="-0.44652">
        <ele>184.58</ele>
        <time>2018-09-28T14:40:28Z</time>
      </trkpt>
      <trkpt lat="48.90784" lon="-0.44668">
        <ele>184.41</ele>
        <time>2018-09-28T14:40:42Z</time>
      </trkpt>
      <trkpt lat="48.90792" lon="-0.44685">
        <ele>183.71</ele>
        <time>2018-09-28T14:40:58Z</time>
      </trkpt>
      <trkpt lat="48.90797" lon="-0.44708">
        <ele>182.57</ele>
        <time>2018-09-28T14:41:18Z</time>
      </trkpt>
      <trkpt lat="48.90803" lon="-0.44736">
        <ele>181.72</ele>
        <time>2018-09-28T14:41:35Z</time>
      </trkpt>
      <trkpt lat="48.9081" lon="-0.44753">
        <ele>180.6</ele>
        <time>2018-09-28T14:41:51Z</time>
      </trkpt>
      <trkpt lat="48.90814" lon="-0.44762">
        <ele>179.64</ele>
        <time>2018-09-28T14:42:03Z</time>
      </trkpt>
      <trkpt lat="48.90824" lon="-0.44777">
        <ele>176.98</ele>
        <time>2018-09-28T14:42:20Z</time>
      </trkpt>
      <trkpt lat="48.90831" lon="-0.44792">
        <ele>173.84</ele>
        <time>2018-09-28T14:42:34Z</time>
      </trkpt>
      <trkpt lat="48.90837" lon="-0.44805">
        <ele>171.33</ele>
        <time>2018-09-28T14:42:51Z</time>
      </trkpt>
      <trkpt lat="48.90842" lon="-0.4482">
        <ele>167.94</ele>
        <time>2018-09-28T14:43:10Z</time>
      </trkpt>
      <trkpt lat="48.90848" lon="-0.44844">
        <ele>165.96</ele>
        <time>2018-09-28T14:43:25Z</time>
      </trkpt>
      <trkpt lat="48.9085" lon="-0.4486">
        <ele>163.54</ele>
        <time>2018-09-28T14:43:37Z</time>
      </trkpt>
      <trkpt lat="48.90858" lon="-0.44881">
        <ele>161.56</ele>
        <time>2018-09-28T14:43:54Z</time>
      </trkpt>
      <trkpt lat="48.90869" lon="-0.44912">
        <ele>160.25</ele>
        <time>2018-09-28T14:44:12Z</time>
      </trkpt>
      <trkpt lat="48.90871" lon="-0.44916">
        <ele>160.35</ele>
        <time>2018-09-28T14:44:15Z</time>
      </trkpt>
      <trkpt lat="48.90879" lon="-0.44938">
        <ele>158.48</ele>
        <time>2018-09-28T14:44:32Z</time>
      </trkpt>
      <trkpt lat="48.90886" lon="-0.44955">
        <ele>156.57</ele>
        <time>2018-09-28T14:44:46Z</time>
      </trkpt>
      <trkpt lat="48.90895" lon="-0.44977">
        <ele>154.16</ele>
        <time>2018-09-28T14:45:03Z</time>
      </trkpt>
      <trkpt lat="48.90901" lon="-0.44997">
        <ele>152.6</ele>
        <time>2018-09-28T14:45:19Z</time>
      </trkpt>
      <trkpt lat="48.90902" lon="-0.44998">
        <ele>151.66</ele>
        <time>2018-09-28T14:45:21Z</time>
      </trkpt>
      <trkpt lat="48.90909" lon="-0.45015">
        <ele>149.2</ele>
        <time>2018-09-28T14:45:38Z</time>
      </trkpt>
      <trkpt lat="48.90915" lon="-0.45029">
        <ele>146.29</ele>
        <time>2018-09-28T14:45:58Z</time>
      </trkpt>
      <trkpt lat="48.90919" lon="-0.45041">
        <ele>143.87</ele>
        <time>2018-09-28T14:46:16Z</time>
      </trkpt>
      <trkpt lat="48.90925" lon="-0.45052">
        <ele>140.74</ele>
        <time>2018-09-28T14:46:33Z</time>
      </trkpt>
      <trkpt lat="48.9093" lon="-0.45061">
        <ele>140.49</ele>
        <time>2018-09-28T14:46:55Z</time>
      </trkpt>
      <trkpt lat="48.90933" lon="-0.45061">
        <ele>139.57</ele>
        <time>2018-09-28T14:47:17Z</time>
      </trkpt>
      <trkpt lat="48.90947" lon="-0.45045">
        <ele>138.48</ele>
        <time>2018-09-28T14:47:36Z</time>
      </trkpt>
      <trkpt lat="48.90962" lon="-0.45033">
        <ele>137.3</ele>
        <time>2018-09-28T14:47:56Z</time>
      </trkpt>
      <trkpt lat="48.90971" lon="-0.45044">
        <ele>135.13</ele>
        <time>2018-09-28T14:48:10Z</time>
      </trkpt>
      <trkpt lat="48.90968" lon="-0.45058">
        <ele>134.66</ele>
        <time>2018-09-28T14:48:19Z</time>
      </trkpt>
      <trkpt lat="48.90961" lon="-0.45079">
        <ele>134.27</ele>
        <time>2018-09-28T14:48:37Z</time>
      </trkpt>
      <trkpt lat="48.90959" lon="-0.45083">
        <ele>133.81</ele>
        <time>2018-09-28T14:48:46Z</time>
      </trkpt>
      <trkpt lat="48.90954" lon="-0.45093">
        <ele>133.52</ele>
        <time>2018-09-28T14:49:06Z</time>
      </trkpt>
      <trkpt lat="48.90945" lon="-0.45096">
        <ele>132.92</ele>
        <time>2018-09-28T14:49:26Z</time>
      </trkpt>
      <trkpt lat="48.90935" lon="-0.45109">
        <ele>131.42</ele>
        <time>2018-09-28T14:49:46Z</time>
      </trkpt>
      <trkpt lat="48.90928" lon="-0.45116">
        <ele>131.49</ele>
        <time>2018-09-28T14:50:03Z</time>
      </trkpt>
      <trkpt lat="48.90932" lon="-0.45112">
        <ele>131.94</ele>
        <time>2018-09-28T14:50:18Z</time>
      </trkpt>
      <trkpt lat="48.90943" lon="-0.45099">
        <ele>133.27</ele>
        <time>2018-09-28T14:50:34Z</time>
      </trkpt>
      <trkpt lat="48.90949" lon="-0.45092">
        <ele>134.1</ele>
        <time>2018-09-28T14:50:42Z</time>
      </trkpt>
      <trkpt lat="48.90956" lon="-0.45093">
        <ele>134.72</ele>
        <time>2018-09-28T14:50:48Z</time>
      </trkpt>
      <trkpt lat="48.90959" lon="-0.45095">
        <ele>134.96</ele>
        <time>2018-09-28T14:50:52Z</time>
      </trkpt>
      <trkpt lat="48.9096" lon="-0.45115">
        <ele>135.64</ele>
        <time>2018-09-28T14:51:08Z</time>
      </trkpt>
      <trkpt lat="48.90958" lon="-0.45129">
        <ele>135.97</ele>
        <time>2018-09-28T14:51:23Z</time>
      </trkpt>
      <trkpt lat="48.90951" lon="-0.45153">
        <ele>136.52</ele>
        <time>2018-09-28T14:51:39Z</time>
      </trkpt>
      <trkpt lat="48.90947" lon="-0.45179">
        <ele>137.2</ele>
        <time>2018-09-28T14:51:54Z</time>
      </trkpt>
      <trkpt lat="48.90946" lon="-0.45195">
        <ele>137.93</ele>
        <time>2018-09-28T14:52:05Z</time>
      </trkpt>
      <trkpt lat="48.90947" lon="-0.45209">
        <ele>138.5</ele>
        <time>2018-09-28T14:52:20Z</time>
      </trkpt>
      <trkpt lat="48.90947" lon="-0.45226">
        <ele>137.3</ele>
        <time>2018-09-28T14:52:38Z</time>
      </trkpt>
      <trkpt lat="48.90946" lon="-0.45264">
        <ele>137.73</ele>
        <time>2018-09-28T14:52:59Z</time>
      </trkpt>
      <trkpt lat="48.90949" lon="-0.45296">
        <ele>137.43</ele>
        <time>2018-09-28T14:53:15Z</time>
      </trkpt>
      <trkpt lat="48.90955" lon="-0.45321">
        <ele>137.86</ele>
        <time>2018-09-28T14:53:30Z</time>
      </trkpt>
      <trkpt lat="48.90959" lon="-0.45343">
        <ele>139.31</ele>
        <time>2018-09-28T14:53:44Z</time>
      </trkpt>
      <trkpt lat="48.90961" lon="-0.45365">
        <ele>141.04</ele>
        <time>2018-09-28T14:53:59Z</time>
      </trkpt>
      <trkpt lat="48.90964" lon="-0.45393">
        <ele>142.57</ele>
        <time>2018-09-28T14:54:18Z</time>
      </trkpt>
      <trkpt lat="48.90964" lon="-0.4541">
        <ele>144.8</ele>
        <time>2018-09-28T14:54:35Z</time>
      </trkpt>
      <trkpt lat="48.90964" lon="-0.45413">
        <ele>144.95</ele>
        <time>2018-09-28T14:54:39Z</time>
      </trkpt>
      <trkpt lat="48.90967" lon="-0.45419">
        <ele>144.83</ele>
        <time>2018-09-28T14:55:04Z</time>
      </trkpt>
      <trkpt lat="48.90966" lon="-0.45426">
        <ele>144.86</ele>
        <time>2018-09-28T14:55:29Z</time>
      </trkpt>
      <trkpt lat="48.90966" lon="-0.45441">
        <ele>144.99</ele>
        <time>2018-09-28T14:55:47Z</time>
      </trkpt>
      <trkpt lat="48.90965" lon="-0.45447">
        <ele>144.18</ele>
        <time>2018-09-28T14:56:07Z</time>
      </trkpt>
      <trkpt lat="48.90965" lon="-0.45448">
        <ele>144.55</ele>
        <time>2018-09-28T14:56:25Z</time>
      </trkpt>
      <trkpt lat="48.90967" lon="-0.4545">
        <ele>144.51</ele>
        <time>2018-09-28T14:56:45Z</time>
      </trkpt>
      <trkpt lat="48.90966" lon="-0.4545">
        <ele>144.55</ele>
        <time>2018-09-28T14:57:05Z</time>
      </trkpt>
      <trkpt lat="48.90967" lon="-0.4545">
        <ele>145.46</ele>
        <time>2018-09-28T14:57:24Z</time>
      </trkpt>
      <trkpt lat="48.90973" lon="-0.45458">
        <ele>146.38</ele>
        <time>2018-09-28T14:57:40Z</time>
      </trkpt>
      <trkpt lat="48.90979" lon="-0.45474">
        <ele>146.83</ele>
        <time>2018-09-28T14:57:56Z</time>
      </trkpt>
      <trkpt lat="48.90982" lon="-0.45482">
        <ele>145.84</ele>
        <time>2018-09-28T14:58:03Z</time>
      </trkpt>
      <trkpt lat="48.90994" lon="-0.45499">
        <ele>145.68</ele>
        <time>2018-09-28T14:58:20Z</time>
      </trkpt>
      <trkpt lat="48.91006" lon="-0.45518">
        <ele>144.34</ele>
        <time>2018-09-28T14:58:36Z</time>
      </trkpt>
      <trkpt lat="48.91021" lon="-0.4553">
        <ele>142.01</ele>
        <time>2018-09-28T14:58:55Z</time>
      </trkpt>
      <trkpt lat="48.91032" lon="-0.45548">
        <ele>141.07</ele>
        <time>2018-09-28T14:59:14Z</time>
      </trkpt>
      <trkpt lat="48.91041" lon="-0.45576">
        <ele>138.06</ele>
        <time>2018-09-28T14:59:32Z</time>
      </trkpt>
      <trkpt lat="48.91048" lon="-0.45597">
        <ele>136.87</ele>
        <time>2018-09-28T14:59:51Z</time>
      </trkpt>
      <trkpt lat="48.91044" lon="-0.45615">
        <ele>136.02</ele>
        <time>2018-09-28T15:00:05Z</time>
      </trkpt>
      <trkpt lat="48.91042" lon="-0.45635">
        <ele>135.16</ele>
        <time>2018-09-28T15:00:21Z</time>
      </trkpt>
      <trkpt lat="48.91041" lon="-0.45659">
        <ele>134.2</ele>
        <time>2018-09-28T15:00:39Z</time>
      </trkpt>
      <trkpt lat="48.91046" lon="-0.45675">
        <ele>134.13</ele>
        <time>2018-09-28T15:00:58Z</time>
      </trkpt>
      <trkpt lat="48.91051" lon="-0.4568">
        <ele>133.72</ele>
        <time>2018-09-28T15:01:06Z</time>
      </trkpt>
      <trkpt lat="48.91053" lon="-0.45687">
        <ele>133.5</ele>
        <time>2018-09-28T15:01:09Z</time>
      </trkpt>
      <trkpt lat="48.91062" lon="-0.45717">
        <ele>133.47</ele>
        <time>2018-09-28T15:01:28Z</time>
      </trkpt>
      <trkpt lat="48.91062" lon="-0.45739">
        <ele>133.26</ele>
        <time>2018-09-28T15:01:44Z</time>
      </trkpt>
      <trkpt lat="48.91072" lon="-0.45779">
        <ele>129.87</ele>
        <time>2018-09-28T15:02:25Z</time>
      </trkpt>
      <trkpt lat="48.91077" lon="-0.45794">
        <ele>128.12</ele>
        <time>2018-09-28T15:02:44Z</time>
      </trkpt>
      <trkpt lat="48.9108" lon="-0.4582">
        <ele>126.56</ele>
        <time>2018-09-28T15:03:03Z</time>
      </trkpt>
      <trkpt lat="48.91081" lon="-0.45838">
        <ele>125.78</ele>
        <time>2018-09-28T15:03:21Z</time>
      </trkpt>
      <trkpt lat="48.91082" lon="-0.45867">
        <ele>125.56</ele>
        <time>2018-09-28T15:03:42Z</time>
      </trkpt>
      <trkpt lat="48.91082" lon="-0.45897">
        <ele>126.65</ele>
        <time>2018-09-28T15:03:59Z</time>
      </trkpt>
      <trkpt lat="48.91083" lon="-0.45906">
        <ele>126.37</ele>
        <time>2018-09-28T15:04:04Z</time>
      </trkpt>
      <trkpt lat="48.91082" lon="-0.45931">
        <ele>127.18</ele>
        <time>2018-09-28T15:04:19Z</time>
      </trkpt>
      <trkpt lat="48.91081" lon="-0.45953">
        <ele>128.36</ele>
        <time>2018-09-28T15:04:37Z</time>
      </trkpt>
      <trkpt lat="48.91083" lon="-0.45979">
        <ele>126.64</ele>
        <time>2018-09-28T15:04:59Z</time>
      </trkpt>
      <trkpt lat="48.9109" lon="-0.46007">
        <ele>125.56</ele>
        <time>2018-09-28T15:05:19Z</time>
      </trkpt>
      <trkpt lat="48.91093" lon="-0.46031">
        <ele>124.43</ele>
        <time>2018-09-28T15:05:39Z</time>
      </trkpt>
      <trkpt lat="48.91098" lon="-0.46047">
        <ele>122.47</ele>
        <time>2018-09-28T15:05:57Z</time>
      </trkpt>
      <trkpt lat="48.91109" lon="-0.46073">
        <ele>119.7</ele>
        <time>2018-09-28T15:06:18Z</time>
      </trkpt>
      <trkpt lat="48.91111" lon="-0.46099">
        <ele>119.39</ele>
        <time>2018-09-28T15:06:35Z</time>
      </trkpt>
      <trkpt lat="48.91108" lon="-0.46119">
        <ele>120.86</ele>
        <time>2018-09-28T15:06:50Z</time>
      </trkpt>
      <trkpt lat="48.91109" lon="-0.46142">
        <ele>119.8</ele>
        <time>2018-09-28T15:07:07Z</time>
      </trkpt>
      <trkpt lat="48.91106" lon="-0.46153">
        <ele>118.91</ele>
        <time>2018-09-28T15:07:24Z</time>
      </trkpt>
      <trkpt lat="48.91105" lon="-0.46156">
        <ele>118.07</ele>
        <time>2018-09-28T15:07:47Z</time>
      </trkpt>
      <trkpt lat="48.91106" lon="-0.46158">
        <ele>118.67</ele>
        <time>2018-09-28T15:08:14Z</time>
      </trkpt>
      <trkpt lat="48.91109" lon="-0.46165">
        <ele>117.39</ele>
        <time>2018-09-28T15:08:32Z</time>
      </trkpt>
      <trkpt lat="48.91115" lon="-0.46174">
        <ele>116.09</ele>
        <time>2018-09-28T15:08:49Z</time>
      </trkpt>
      <trkpt lat="48.91124" lon="-0.46189">
        <ele>113.35</ele>
        <time>2018-09-28T15:09:06Z</time>
      </trkpt>
      <trkpt lat="48.91124" lon="-0.46191">
        <ele>114.65</ele>
        <time>2018-09-28T15:09:08Z</time>
      </trkpt>
      <trkpt lat="48.91129" lon="-0.462">
        <ele>116.57</ele>
        <time>2018-09-28T15:09:20Z</time>
      </trkpt>
      <trkpt lat="48.9113" lon="-0.46205">
        <ele>114.38</ele>
        <time>2018-09-28T15:09:24Z</time>
      </trkpt>
      <trkpt lat="48.91128" lon="-0.46224">
        <ele>115.56</ele>
        <time>2018-09-28T15:09:35Z</time>
      </trkpt>
      <trkpt lat="48.91128" lon="-0.46245">
        <ele>114.52</ele>
        <time>2018-09-28T15:09:52Z</time>
      </trkpt>
      <trkpt lat="48.91128" lon="-0.4626">
        <ele>114.78</ele>
        <time>2018-09-28T15:10:07Z</time>
      </trkpt>
      <trkpt lat="48.91125" lon="-0.46276">
        <ele>114.89</ele>
        <time>2018-09-28T15:10:22Z</time>
      </trkpt>
      <trkpt lat="48.91124" lon="-0.46303">
        <ele>113.42</ele>
        <time>2018-09-28T15:10:38Z</time>
      </trkpt>
      <trkpt lat="48.91123" lon="-0.46317">
        <ele>112.49</ele>
        <time>2018-09-28T15:10:45Z</time>
      </trkpt>
      <trkpt lat="48.91122" lon="-0.46318">
        <ele>112.82</ele>
        <time>2018-09-28T15:10:46Z</time>
      </trkpt>
      <trkpt lat="48.91121" lon="-0.46323">
        <ele>114.91</ele>
        <time>2018-09-28T15:10:49Z</time>
      </trkpt>
      <trkpt lat="48.91122" lon="-0.46332">
        <ele>111.71</ele>
        <time>2018-09-28T15:10:57Z</time>
      </trkpt>
      <trkpt lat="48.91117" lon="-0.46338">
        <ele>111.17</ele>
        <time>2018-09-28T15:11:13Z</time>
      </trkpt>
      <trkpt lat="48.91117" lon="-0.46336">
        <ele>112.46</ele>
        <time>2018-09-28T15:11:31Z</time>
      </trkpt>
      <trkpt lat="48.91119" lon="-0.4634">
        <ele>111.42</ele>
        <time>2018-09-28T15:11:37Z</time>
      </trkpt>
      <trkpt lat="48.91122" lon="-0.46352">
        <ele>110.68</ele>
        <time>2018-09-28T15:11:50Z</time>
      </trkpt>
      <trkpt lat="48.91127" lon="-0.46373">
        <ele>110.16</ele>
        <time>2018-09-28T15:12:04Z</time>
      </trkpt>
      <trkpt lat="48.91127" lon="-0.46382">
        <ele>109.46</ele>
        <time>2018-09-28T15:12:10Z</time>
      </trkpt>
      <trkpt lat="48.91126" lon="-0.464">
        <ele>111.29</ele>
        <time>2018-09-28T15:12:22Z</time>
      </trkpt>
      <trkpt lat="48.91128" lon="-0.46424">
        <ele>113.1</ele>
        <time>2018-09-28T15:12:36Z</time>
      </trkpt>
      <trkpt lat="48.91128" lon="-0.46442">
        <ele>114.18</ele>
        <time>2018-09-28T15:12:47Z</time>
      </trkpt>
      <trkpt lat="48.91126" lon="-0.46456">
        <ele>113.55</ele>
        <time>2018-09-28T15:12:59Z</time>
      </trkpt>
      <trkpt lat="48.91126" lon="-0.46478">
        <ele>111.32</ele>
        <time>2018-09-28T15:13:16Z</time>
      </trkpt>
      <trkpt lat="48.91128" lon="-0.46487">
        <ele>108.29</ele>
        <time>2018-09-28T15:13:37Z</time>
      </trkpt>
      <trkpt lat="48.91132" lon="-0.46513">
        <ele>108.02</ele>
        <time>2018-09-28T15:13:52Z</time>
      </trkpt>
      <trkpt lat="48.91131" lon="-0.46544">
        <ele>110.82</ele>
        <time>2018-09-28T15:14:11Z</time>
      </trkpt>
      <trkpt lat="48.91124" lon="-0.46571">
        <ele>111.56</ele>
        <time>2018-09-28T15:14:27Z</time>
      </trkpt>
      <trkpt lat="48.91118" lon="-0.46576">
        <ele>112.95</ele>
        <time>2018-09-28T15:14:45Z</time>
      </trkpt>
      <trkpt lat="48.91113" lon="-0.46572">
        <ele>111.45</ele>
        <time>2018-09-28T15:15:12Z</time>
      </trkpt>
      <trkpt lat="48.9112" lon="-0.46572">
        <ele>112.04</ele>
        <time>2018-09-28T15:15:31Z</time>
      </trkpt>
      <trkpt lat="48.91117" lon="-0.46575">
        <ele>111.17</ele>
        <time>2018-09-28T15:15:52Z</time>
      </trkpt>
      <trkpt lat="48.91117" lon="-0.46581">
        <ele>111.75</ele>
        <time>2018-09-28T15:16:11Z</time>
      </trkpt>
      <trkpt lat="48.91122" lon="-0.46584">
        <ele>108.7</ele>
        <time>2018-09-28T15:16:25Z</time>
      </trkpt>
      <trkpt lat="48.91132" lon="-0.46591">
        <ele>106.67</ele>
        <time>2018-09-28T15:16:42Z</time>
      </trkpt>
      <trkpt lat="48.91137" lon="-0.46607">
        <ele>104.06</ele>
        <time>2018-09-28T15:17:00Z</time>
      </trkpt>
      <trkpt lat="48.91139" lon="-0.46629">
        <ele>100.97</ele>
        <time>2018-09-28T15:17:16Z</time>
      </trkpt>
      <trkpt lat="48.9114" lon="-0.46657">
        <ele>99.18</ele>
        <time>2018-09-28T15:17:33Z</time>
      </trkpt>
      <trkpt lat="48.91142" lon="-0.46683">
        <ele>99.15</ele>
        <time>2018-09-28T15:17:49Z</time>
      </trkpt>
      <trkpt lat="48.91139" lon="-0.46708">
        <ele>97.69</ele>
        <time>2018-09-28T15:18:06Z</time>
      </trkpt>
      <trkpt lat="48.91137" lon="-0.46723">
        <ele>95.19</ele>
        <time>2018-09-28T15:18:20Z</time>
      </trkpt>
      <trkpt lat="48.91135" lon="-0.46746">
        <ele>93.58</ele>
        <time>2018-09-28T15:18:37Z</time>
      </trkpt>
      <trkpt lat="48.91132" lon="-0.46763">
        <ele>94.55</ele>
        <time>2018-09-28T15:18:48Z</time>
      </trkpt>
      <trkpt lat="48.91127" lon="-0.46784">
        <ele>95.72</ele>
        <time>2018-09-28T15:19:06Z</time>
      </trkpt>
      <trkpt lat="48.91119" lon="-0.46801">
        <ele>97.48</ele>
        <time>2018-09-28T15:19:25Z</time>
      </trkpt>
      <trkpt lat="48.91119" lon="-0.46809">
        <ele>96.94</ele>
        <time>2018-09-28T15:19:43Z</time>
      </trkpt>
      <trkpt lat="48.91119" lon="-0.46816">
        <ele>96.25</ele>
        <time>2018-09-28T15:20:04Z</time>
      </trkpt>
      <trkpt lat="48.91115" lon="-0.46832">
        <ele>96.57</ele>
        <time>2018-09-28T15:20:22Z</time>
      </trkpt>
      <trkpt lat="48.91116" lon="-0.46857">
        <ele>97.68</ele>
        <time>2018-09-28T15:20:39Z</time>
      </trkpt>
      <trkpt lat="48.91112" lon="-0.46878">
        <ele>100.55</ele>
        <time>2018-09-28T15:20:56Z</time>
      </trkpt>
      <trkpt lat="48.91104" lon="-0.46886">
        <ele>101.77</ele>
        <time>2018-09-28T15:21:11Z</time>
      </trkpt>
      <trkpt lat="48.91099" lon="-0.46894">
        <ele>103.78</ele>
        <time>2018-09-28T15:21:33Z</time>
      </trkpt>
      <trkpt lat="48.91097" lon="-0.46902">
        <ele>102.47</ele>
        <time>2018-09-28T15:21:48Z</time>
      </trkpt>
      <trkpt lat="48.91097" lon="-0.46915">
        <ele>100.48</ele>
        <time>2018-09-28T15:22:07Z</time>
      </trkpt>
      <trkpt lat="48.91097" lon="-0.46921">
        <ele>101.03</ele>
        <time>2018-09-28T15:22:11Z</time>
      </trkpt>
      <trkpt lat="48.91093" lon="-0.46941">
        <ele>101.23</ele>
        <time>2018-09-28T15:22:27Z</time>
      </trkpt>
      <trkpt lat="48.9109" lon="-0.46951">
        <ele>98.52</ele>
        <time>2018-09-28T15:22:37Z</time>
      </trkpt>
      <trkpt lat="48.91087" lon="-0.46967">
        <ele>96.75</ele>
        <time>2018-09-28T15:22:52Z</time>
      </trkpt>
      <trkpt lat="48.91089" lon="-0.46974">
        <ele>96.46</ele>
        <time>2018-09-28T15:23:09Z</time>
      </trkpt>
      <trkpt lat="48.91091" lon="-0.46977">
        <ele>95.38</ele>
        <time>2018-09-28T15:23:17Z</time>
      </trkpt>
      <trkpt lat="48.91091" lon="-0.46979">
        <ele>96.57</ele>
        <time>2018-09-28T15:23:34Z</time>
      </trkpt>
      <trkpt lat="48.91097" lon="-0.46986">
        <ele>93.35</ele>
        <time>2018-09-28T15:23:51Z</time>
      </trkpt>
      <trkpt lat="48.91103" lon="-0.46994">
        <ele>90.27</ele>
        <time>2018-09-28T15:24:01Z</time>
      </trkpt>
      <trkpt lat="48.91113" lon="-0.47003">
        <ele>87.05</ele>
        <time>2018-09-28T15:24:17Z</time>
      </trkpt>
      <trkpt lat="48.91123" lon="-0.47014">
        <ele>84.63</ele>
        <time>2018-09-28T15:24:34Z</time>
      </trkpt>
      <trkpt lat="48.91133" lon="-0.47022">
        <ele>81.56</ele>
        <time>2018-09-28T15:24:48Z</time>
      </trkpt>
      <trkpt lat="48.91139" lon="-0.47028">
        <ele>78.37</ele>
        <time>2018-09-28T15:25:04Z</time>
      </trkpt>
      <trkpt lat="48.9114" lon="-0.47029">
        <ele>78.53</ele>
        <time>2018-09-28T15:25:07Z</time>
      </trkpt>
      <trkpt lat="48.91142" lon="-0.47032">
        <ele>78.42</ele>
        <time>2018-09-28T15:25:29Z</time>
      </trkpt>
      <trkpt lat="48.91145" lon="-0.47037">
        <ele>75.4</ele>
        <time>2018-09-28T15:25:47Z</time>
      </trkpt>
      <trkpt lat="48.91147" lon="-0.47039">
        <ele>74.57</ele>
        <time>2018-09-28T15:25:51Z</time>
      </trkpt>
      <trkpt lat="48.91161" lon="-0.47056">
        <ele>71.59</ele>
        <time>2018-09-28T15:26:10Z</time>
      </trkpt>
      <trkpt lat="48.91173" lon="-0.47066">
        <ele>68.91</ele>
        <time>2018-09-28T15:26:27Z</time>
      </trkpt>
      <trkpt lat="48.91183" lon="-0.47078">
        <ele>65.76</ele>
        <time>2018-09-28T15:26:41Z</time>
      </trkpt>
      <trkpt lat="48.91196" lon="-0.47093">
        <ele>62.66</ele>
        <time>2018-09-28T15:27:00Z</time>
      </trkpt>
      <trkpt lat="48.91212" lon="-0.47097">
        <ele>60.74</ele>
        <time>2018-09-28T15:27:20Z</time>
      </trkpt>
      <trkpt lat="48.9122" lon="-0.471">
        <ele>57.65</ele>
        <time>2018-09-28T15:27:29Z</time>
      </trkpt>
      <trkpt lat="48.91233" lon="-0.47108">
        <ele>55.23</ele>
        <time>2018-09-28T15:27:46Z</time>
      </trkpt>
      <trkpt lat="48.91243" lon="-0.47122">
        <ele>53.43</ele>
        <time>2018-09-28T15:28:04Z</time>
      </trkpt>
      <trkpt lat="48.9125" lon="-0.47137">
        <ele>50.61</ele>
        <time>2018-09-28T15:28:21Z</time>
      </trkpt>
      <trkpt lat="48.91252" lon="-0.47143">
        <ele>49.93</ele>
        <time>2018-09-28T15:28:26Z</time>
      </trkpt>
      <trkpt lat="48.91261" lon="-0.4716">
        <ele>46.44</ele>
        <time>2018-09-28T15:28:40Z</time>
      </trkpt>
      <trkpt lat="48.91262" lon="-0.47162">
        <ele>45.54</ele>
        <time>2018-09-28T15:28:42Z</time>
      </trkpt>
      <trkpt lat="48.91271" lon="-0.47187">
        <ele>42.44</ele>
        <time>2018-09-28T15:28:59Z</time>
      </trkpt>
      <trkpt lat="48.91273" lon="-0.47191">
        <ele>42.31</ele>
        <time>2018-09-28T15:29:03Z</time>
      </trkpt>
      <trkpt lat="48.91279" lon="-0.47215">
        <ele>39.57</ele>
        <time>2018-09-28T15:29:19Z</time>
      </trkpt>
      <trkpt lat="48.91283" lon="-0.47243">
        <ele>37.44</ele>
        <time>2018-09-28T15:29:39Z</time>
      </trkpt>
      <trkpt lat="48.91283" lon="-0.47249">
        <ele>38.45</ele>
        <time>2018-09-28T15:29:52Z</time>
      </trkpt>
      <trkpt lat="48.91283" lon="-0.47245">
        <ele>37.41</ele>
        <time>2018-09-28T15:30:14Z</time>
      </trkpt>
      <trkpt lat="48.91291" lon="-0.47248">
        <ele>37.1</ele>
        <time>2018-09-28T15:30:30Z</time>
      </trkpt>
      <trkpt lat="48.91293" lon="-0.47245">
        <ele>35.87</ele>
        <time>2018-09-28T15:30:46Z</time>
      </trkpt>
      <trkpt lat="48.91291" lon="-0.47248">
        <ele>36.04</ele>
        <time>2018-09-28T15:31:10Z</time>
      </trkpt>
      <trkpt lat="48.91292" lon="-0.47247">
        <ele>36.1</ele>
        <time>2018-09-28T15:31:30Z</time>
      </trkpt>
      <trkpt lat="48.91292" lon="-0.47247">
        <ele>36.28</ele>
        <time>2018-09-28T15:31:55Z</time>
      </trkpt>
      <trkpt lat="48.91293" lon="-0.47246">
        <ele>35.86</ele>
        <time>2018-09-28T15:32:05Z</time>
      </trkpt>
      <trkpt lat="48.91296" lon="-0.47246">
        <ele>36.05</ele>
        <time>2018-09-28T15:32:18Z</time>
      </trkpt>
      <trkpt lat="48.91306" lon="-0.47245">
        <ele>34.95</ele>
        <time>2018-09-28T15:32:30Z</time>
      </trkpt>
      <trkpt lat="48.91316" lon="-0.47243">
        <ele>33.89</ele>
        <time>2018-09-28T15:32:45Z</time>
      </trkpt>
      <trkpt lat="48.9133" lon="-0.47236">
        <ele>33.4</ele>
        <time>2018-09-28T15:33:04Z</time>
      </trkpt>
      <trkpt lat="48.91343" lon="-0.47232">
        <ele>32.47</ele>
        <time>2018-09-28T15:33:18Z</time>
      </trkpt>
      <trkpt lat="48.91346" lon="-0.47236">
        <ele>32.56</ele>
        <time>2018-09-28T15:33:22Z</time>
      </trkpt>
      <trkpt lat="48.91348" lon="-0.47241">
        <ele>32.28</ele>
        <time>2018-09-28T15:33:26Z</time>
      </trkpt>
      <trkpt lat="48.91348" lon="-0.47244">
        <ele>31.95</ele>
        <time>2018-09-28T15:33:28Z</time>
      </trkpt>
      <trkpt lat="48.91352" lon="-0.4726">
        <ele>32.47</ele>
        <time>2018-09-28T15:33:42Z</time>
      </trkpt>
      <trkpt lat="48.91356" lon="-0.47281">
        <ele>31.01</ele>
        <time>2018-09-28T15:33:59Z</time>
      </trkpt>
      <trkpt lat="48.91362" lon="-0.47302">
        <ele>30.01</ele>
        <time>2018-09-28T15:34:13Z</time>
      </trkpt>
      <trkpt lat="48.91363" lon="-0.47305">
        <ele>29.66</ele>
        <time>2018-09-28T15:34:15Z</time>
      </trkpt>
      <trkpt lat="48.91372" lon="-0.47325">
        <ele>28.32</ele>
        <time>2018-09-28T15:34:30Z</time>
      </trkpt>
      <trkpt lat="48.91379" lon="-0.4735">
        <ele>26.47</ele>
        <time>2018-09-28T15:34:46Z</time>
      </trkpt>
      <trkpt lat="48.91381" lon="-0.47365">
        <ele>26.3</ele>
        <time>2018-09-28T15:34:55Z</time>
      </trkpt>
      <trkpt lat="48.91389" lon="-0.47381">
        <ele>25.29</ele>
        <time>2018-09-28T15:35:10Z</time>
      </trkpt>
      <trkpt lat="48.9139" lon="-0.47382">
        <ele>24.97</ele>
        <time>2018-09-28T15:35:22Z</time>
      </trkpt>
      <trkpt lat="48.91396" lon="-0.47381">
        <ele>25.08</ele>
        <time>2018-09-28T15:35:38Z</time>
      </trkpt>
      <trkpt lat="48.91403" lon="-0.4738">
        <ele>23.5</ele>
        <time>2018-09-28T15:35:46Z</time>
      </trkpt>
      <trkpt lat="48.91412" lon="-0.47375">
        <ele>23.86</ele>
        <time>2018-09-28T15:35:55Z</time>
      </trkpt>
      <trkpt lat="48.91425" lon="-0.47372">
        <ele>24.35</ele>
        <time>2018-09-28T15:36:07Z</time>
      </trkpt>
      <trkpt lat="48.91427" lon="-0.47371">
        <ele>23.92</ele>
        <time>2018-09-28T15:36:09Z</time>
      </trkpt>
      <trkpt lat="48.91429" lon="-0.47369">
        <ele>23.83</ele>
        <time>2018-09-28T15:36:11Z</time>
      </trkpt>
      <trkpt lat="48.91438" lon="-0.47368">
        <ele>24.56</ele>
        <time>2018-09-28T15:36:21Z</time>
      </trkpt>
      <trkpt lat="48.9144" lon="-0.47367">
        <ele>23.96</ele>
        <time>2018-09-28T15:36:23Z</time>
      </trkpt>
      <trkpt lat="48.91458" lon="-0.47361">
        <ele>24.13</ele>
        <time>2018-09-28T15:36:36Z</time>
      </trkpt>
      <trkpt lat="48.91481" lon="-0.47363">
        <ele>24.76</ele>
        <time>2018-09-28T15:36:54Z</time>
      </trkpt>
      <trkpt lat="48.91506" lon="-0.47366">
        <ele>26.18</ele>
        <time>2018-09-28T15:37:14Z</time>
      </trkpt>
      <trkpt lat="48.91532" lon="-0.47363">
        <ele>26.81</ele>
        <time>2018-09-28T15:37:35Z</time>
      </trkpt>
      <trkpt lat="48.91551" lon="-0.47362">
        <ele>26.65</ele>
        <time>2018-09-28T15:37:51Z</time>
      </trkpt>
      <trkpt lat="48.91568" lon="-0.47363">
        <ele>26.79</ele>
        <time>2018-09-28T15:38:08Z</time>
      </trkpt>
      <trkpt lat="48.91582" lon="-0.47363">
        <ele>26.3</ele>
        <time>2018-09-28T15:38:23Z</time>
      </trkpt>
      <trkpt lat="48.91599" lon="-0.47359">
        <ele>25.6</ele>
        <time>2018-09-28T15:38:38Z</time>
      </trkpt>
      <trkpt lat="48.91617" lon="-0.47357">
        <ele>24.52</ele>
        <time>2018-09-28T15:38:51Z</time>
      </trkpt>
      <trkpt lat="48.91636" lon="-0.47353">
        <ele>24.2</ele>
        <time>2018-09-28T15:39:06Z</time>
      </trkpt>
      <trkpt lat="48.91654" lon="-0.47349">
        <ele>25.06</ele>
        <time>2018-09-28T15:39:21Z</time>
      </trkpt>
      <trkpt lat="48.91664" lon="-0.47354">
        <ele>23.16</ele>
        <time>2018-09-28T15:39:31Z</time>
      </trkpt>
      <trkpt lat="48.91668" lon="-0.4737">
        <ele>23.54</ele>
        <time>2018-09-28T15:39:43Z</time>
      </trkpt>
      <trkpt lat="48.91663" lon="-0.47396">
        <ele>23.25</ele>
        <time>2018-09-28T15:39:59Z</time>
      </trkpt>
      <trkpt lat="48.91659" lon="-0.4742">
        <ele>23.51</ele>
        <time>2018-09-28T15:40:17Z</time>
      </trkpt>
      <trkpt lat="48.91658" lon="-0.47444">
        <ele>24.39</ele>
        <time>2018-09-28T15:40:32Z</time>
      </trkpt>
      <trkpt lat="48.91658" lon="-0.47461">
        <ele>23.99</ele>
        <time>2018-09-28T15:40:43Z</time>
      </trkpt>
      <trkpt lat="48.91656" lon="-0.47486">
        <ele>23.19</ele>
        <time>2018-09-28T15:41:02Z</time>
      </trkpt>
      <trkpt lat="48.91655" lon="-0.47492">
        <ele>23.78</ele>
        <time>2018-09-28T15:41:05Z</time>
      </trkpt>
      <trkpt lat="48.91654" lon="-0.47505">
        <ele>23.88</ele>
        <time>2018-09-28T15:41:13Z</time>
      </trkpt>
      <trkpt lat="48.91651" lon="-0.47531">
        <ele>24.13</ele>
        <time>2018-09-28T15:41:26Z</time>
      </trkpt>
      <trkpt lat="48.9165" lon="-0.47581">
        <ele>24</ele>
        <time>2018-09-28T15:41:52Z</time>
      </trkpt>
      <trkpt lat="48.91648" lon="-0.47623">
        <ele>24.26</ele>
        <time>2018-09-28T15:42:16Z</time>
      </trkpt>
      <trkpt lat="48.91645" lon="-0.47641">
        <ele>26</ele>
        <time>2018-09-28T15:42:28Z</time>
      </trkpt>
      <trkpt lat="48.9162" lon="-0.47645">
        <ele>25.26</ele>
        <time>2018-09-28T15:42:47Z</time>
      </trkpt>
      <trkpt lat="48.91593" lon="-0.47641">
        <ele>25.36</ele>
        <time>2018-09-28T15:43:08Z</time>
      </trkpt>
      <trkpt lat="48.91569" lon="-0.47635">
        <ele>25.16</ele>
        <time>2018-09-28T15:43:28Z</time>
      </trkpt>
      <trkpt lat="48.91543" lon="-0.47627">
        <ele>23.54</ele>
        <time>2018-09-28T15:43:49Z</time>
      </trkpt>
    </trkseg>
  </trk>
</gpx>